Observation data for Guadalupe Mtns Park on 02/14/2020      Previous  Date  Next       Current Mesonet Observations  Soil Data  Daily Summary Page  Observations in Plain Language
KGU1 140600Z 01003KT 01/M03 A3021 RMK A01 T00121027  RH  076%=      5-min Rain = 0
KGU1 140601Z 01004KT 01/M03 A3021 RMK A01 T00121026  RH  076%=      5-min Rain = 0
KGU1 140602Z 01004KT 01/M03 A3021 RMK A01 T00121026  RH  076%=      5-min Rain = 0
KGU1 140603Z 01004KT 01/M03 A3021 RMK A01 T00131025  RH  076%=      5-min Rain = 0
KGU1 140604Z 01004KT 01/M03 A3021 RMK A01 T00141025  RH  076%=      5-min Rain = 0
KGU1 140605Z 02005KT 01/M03 A3021 RMK A01 T00141025  RH  076%=      5-min Rain = 0
KGU1 140606Z 01005KT 02/M02 A3021 RMK A01 T00151024  RH  076%=      5-min Rain = 0
KGU1 140607Z 01005KT 02/M02 A302 RMK A01 T00161023  RH  075%=      5-min Rain = 0
KGU1 140608Z 01005KT 02/M02 A302 RMK A01 T00181023  RH  075%=      5-min Rain = 0
KGU1 140609Z 01005KT 02/M02 A302 RMK A01 T00191023  RH  074%=      5-min Rain = 0
KGU1 140610Z 01005KT 02/M02 A302 RMK A01 T00191024  RH  074%=      5-min Rain = 0
KGU1 140611Z 01005KT 02/M02 A302 RMK A01 T00201024  RH  074%=      5-min Rain = 0
KGU1 140612Z 36004KT 02/M02 A302 RMK A01 T00201024  RH  073%=      5-min Rain = 0
KGU1 140613Z 00005KT 02/M02 A302 RMK A01 T00191024  RH  074%=      5-min Rain = 0
KGU1 140614Z 01005KT 02/M02 A3021 RMK A01 T00191024  RH  074%=      5-min Rain = 0
KGU1 140615Z 01005KT 02/M02 A3021 RMK A01 T00191024  RH  074%=      5-min Rain = 0
KGU1 140616Z 01005KT 02/M02 A302 RMK A01 T00191024  RH  074%=      5-min Rain = 0
KGU1 140617Z 01005KT 02/M02 A302 RMK A01 T00201024  RH  073%=      5-min Rain = 0
KGU1 140618Z 01005KT 02/M02 A302 RMK A01 T00201024  RH  073%=      5-min Rain = 0
KGU1 140619Z 01005KT 02/M02 A3021 RMK A01 T00201024  RH  073%=      5-min Rain = 0
KGU1 140620Z 00005KT 02/M02 A3021 RMK A01 T00201024  RH  073%=      5-min Rain = 0
KGU1 140621Z 01004KT 02/M02 A3021 RMK A01 T00201024  RH  073%=      5-min Rain = 0
KGU1 140622Z 01004KT 02/M02 A3021 RMK A01 T00201024  RH  073%=      5-min Rain = 0
KGU1 140623Z 01004KT 02/M03 A3021 RMK A01 T00201025  RH  073%=      5-min Rain = 0
KGU1 140624Z 01004KT 02/M02 A3021 RMK A01 T00211024  RH  073%=      5-min Rain = 0
KGU1 140625Z 01004KT 02/M02 A3021 RMK A01 T00211024  RH  073%=      5-min Rain = 0
KGU1 140626Z 00003KT 02/M03 A3021 RMK A01 T00201026  RH  072%=      5-min Rain = 0
KGU1 140627Z 35003KT 02/M03 A3021 RMK A01 T00181026  RH  073%=      5-min Rain = 0
KGU1 140628Z 35003KT 02/M03 A3021 RMK A01 T00161028  RH  073%=      5-min Rain = 0
KGU1 140629Z 35003KT 01/M03 A3021 RMK A01 T00131028  RH  074%=      5-min Rain = 0
KGU1 140630Z 35004KT 01/M03 A3021 RMK A01 T00121028  RH  075%=      5-min Rain = 0
KGU1 140631Z 36004KT 01/M03 A3021 RMK A01 T00121026  RH  076%=      5-min Rain = 0
KGU1 140632Z 00004KT 01/M03 A3021 RMK A01 T00121026  RH  076%=      5-min Rain = 0
KGU1 140633Z 00004KT 01/M03 A3021 RMK A01 T00121026  RH  076%=      5-min Rain = 0
KGU1 140634Z 00004KT 01/M03 A3021 RMK A01 T00131025  RH  076%=      5-min Rain = 0
KGU1 140635Z 01004KT 01/M03 A3021 RMK A01 T00131025  RH  076%=      5-min Rain = 0
KGU1 140636Z 01005KT 01/M03 A3021 RMK A01 T00141025  RH  076%=      5-min Rain = 0
KGU1 140637Z 01005KT 02/M02 A3021 RMK A01 T00151024  RH  075%=      5-min Rain = 0
KGU1 140638Z 00005KT 02/M02 A3021 RMK A01 T00171024  RH  075%=      5-min Rain = 0
KGU1 140639Z 01005KT 02/M02 A3021 RMK A01 T00171024  RH  074%=      5-min Rain = 0
KGU1 140640Z 01004KT 02/M03 A3021 RMK A01 T00171025  RH  074%=      5-min Rain = 0
KGU1 140641Z 01005KT 02/M02 A3021 RMK A01 T00181024  RH  074%=      5-min Rain = 0
KGU1 140642Z 00005KT 02/M02 A3021 RMK A01 T00191024  RH  074%=      5-min Rain = 0
KGU1 140643Z 00005KT 02/M03 A302 RMK A01 T00191025  RH  073%=      5-min Rain = 0
KGU1 140644Z 36005KT 02/M03 A302 RMK A01 T00181025  RH  074%=      5-min Rain = 0
KGU1 140645Z 01005KT 02/M03 A302 RMK A01 T00181025  RH  074%=      5-min Rain = 0
KGU1 140646Z 01006KT 02/M03 A302 RMK A01 T00171025  RH  074%=      5-min Rain = 0
KGU1 140647Z 01006KT 02/M03 A302 RMK A01 T00161025  RH  075%=      5-min Rain = 0
KGU1 140648Z 36005KT 02/M03 A302 RMK A01 T00161025  RH  075%=      5-min Rain = 0
KGU1 140649Z 00005KT 02/M03 A302 RMK A01 T00161025  RH  075%=      5-min Rain = 0
KGU1 140650Z 36005KT 02/M02 A302 RMK A01 T00161024  RH  075%=      5-min Rain = 0
KGU1 140651Z 36004KT 02/M02 A302 RMK A01 T00171024  RH  075%=      5-min Rain = 0
KGU1 140652Z 35004KT 02/M02 A302 RMK A01 T00171024  RH  075%=      5-min Rain = 0
KGU1 140653Z 34004KT 02/M03 A302 RMK A01 T00171025  RH  074%=      5-min Rain = 0
KGU1 140654Z 34004KT 02/M03 A302 RMK A01 T00171025  RH  074%=      5-min Rain = 0
KGU1 140655Z 33004KT 02/M03 A302 RMK A01 T00161026  RH  074%=      5-min Rain = 0
KGU1 140656Z 33004KT 02/M03 A302 RMK A01 T00151026  RH  075%=      5-min Rain = 0
KGU1 140657Z 33004KT 01/M03 A302 RMK A01 T00131027  RH  075%=      5-min Rain = 0
KGU1 140658Z 33004KT 01/M03 A302 RMK A01 T00121027  RH  076%=      5-min Rain = 0
KGU1 140659Z 31004KT 01/M03 A302 RMK A01 T00101028  RH  076%=      5-min Rain = 0
KGU1 140700Z 30005KT 01/M03 A302 RMK A01 T00071030  RH  077%=      5-min Rain = 0
KGU1 140701Z 31005KT 00/M03 A302 RMK A01 T00041031  RH  078%=      5-min Rain = 0
KGU1 140702Z 32004KT 00/M03 A302 RMK A01 T00031031  RH  079%=      5-min Rain = 0
KGU1 140703Z 33004KT 00/M03 A302 RMK A01 T00021030  RH  079%=      5-min Rain = 0
KGU1 140704Z 33004KT 00/M03 A302 RMK A01 T00041028  RH  080%=      5-min Rain = 0
KGU1 140705Z 33004KT 00/M03 A302 RMK A01 T00041029  RH  079%=      5-min Rain = 0
KGU1 140706Z 34004KT 00/M03 A302 RMK A01 T00041029  RH  079%=      5-min Rain = 0
KGU1 140707Z 35003KT 00/M03 A302 RMK A01 T00041029  RH  079%=      5-min Rain = 0
KGU1 140708Z 34003KT 00/M03 A302 RMK A01 T00031029  RH  080%=      5-min Rain = 0
KGU1 140709Z 34003KT 01/M03 A302 RMK A01 T00051027  RH  080%=      5-min Rain = 0
KGU1 140710Z 34003KT 01/M03 A302 RMK A01 T00061027  RH  079%=      5-min Rain = 0
KGU1 140711Z 35003KT 01/M03 A302 RMK A01 T00061028  RH  078%=      5-min Rain = 0
KGU1 140712Z 33003KT 01/M03 A302 RMK A01 T00051030  RH  078%=      5-min Rain = 0
KGU1 140713Z 32003KT 00/M03 A302 RMK A01 T00041031  RH  078%=      5-min Rain = 0
KGU1 140714Z 33003KT 00/M03 A302 RMK A01 T00031031  RH  078%=      5-min Rain = 0
KGU1 140715Z 33003KT 00/M03 A302 RMK A01 T00031030  RH  079%=      5-min Rain = 0
KGU1 140716Z 35002KT 00/M03 A302 RMK A01 T00031030  RH  079%=      5-min Rain = 0
KGU1 140717Z 35002KT 00/M03 A302 RMK A01 T00041029  RH  079%=      5-min Rain = 0
KGU1 140718Z 33002KT 00/M03 A302 RMK A01 T00031030  RH  079%=      5-min Rain = 0
KGU1 140719Z 31002KT 00/M03 A302 RMK A01 T00041030  RH  079%=      5-min Rain = 0
KGU1 140720Z 32003KT 00/M03 A302 RMK A01 T00041031  RH  078%=      5-min Rain = 0
KGU1 140721Z 32002KT 00/M03 A302 RMK A01 T00031031  RH  078%=      5-min Rain = 0
KGU1 140722Z 31002KT 00/M03 A302 RMK A01 T00021032  RH  079%=      5-min Rain = 0
KGU1 140723Z 30003KT 00/M03 A302 RMK A01 T00011033  RH  079%=      5-min Rain = 0
KGU1 140724Z 29004KT M00/M03 A302 RMK A01 T10011034  RH  079%=      5-min Rain = 0
KGU1 140725Z 29003KT M00/M03 A302 RMK A01 T10011033  RH  079%=      5-min Rain = 0
KGU1 140726Z 30003KT M00/M03 A302 RMK A01 T10011033  RH  080%=      5-min Rain = 0
KGU1 140727Z 31003KT M00/M03 A302 RMK A01 T10021034  RH  080%=      5-min Rain = 0
KGU1 140728Z 31003KT M00/M03 A302 RMK A01 T10021033  RH  080%=      5-min Rain = 0
KGU1 140729Z 31003KT M00/M03 A302 RMK A01 T10021033  RH  080%=      5-min Rain = 0
KGU1 140730Z 31003KT M00/M03 A302 RMK A01 T10011031  RH  080%=      5-min Rain = 0
KGU1 140731Z 31004KT 00/03 A302 RMK A01 T00-00-32  RH  080%=      5-min Rain = 0
KGU1 140732Z 31004KT 00/03 A302 RMK A01 T00000-32  RH  080%=      5-min Rain = 0
KGU1 140733Z 31004KT 00/03 A302 RMK A01 T00-00-32  RH  080%=      5-min Rain = 0
KGU1 140734Z 30004KT M00/M03 A302 RMK A01 T10011033  RH  079%=      5-min Rain = 0
KGU1 140735Z 29005KT M00/M04 A302 RMK A01 T10021035  RH  079%=      5-min Rain = 0
KGU1 140736Z 29005KT M00/M04 A302 RMK A01 T10031035  RH  080%=      5-min Rain = 0
KGU1 140737Z 30004KT M00/M04 A302 RMK A01 T10041035  RH  080%=      5-min Rain = 0
KGU1 140738Z 30004KT M01/M04 A302 RMK A01 T10051035  RH  081%=      5-min Rain = 0
KGU1 140739Z 30005KT M01/M03 A302 RMK A01 T10051034  RH  081%=      5-min Rain = 0
KGU1 140740Z 30005KT M01/M03 A302 RMK A01 T10051034  RH  081%=      5-min Rain = 0
KGU1 140741Z 30004KT M00/M03 A302 RMK A01 T10041033  RH  081%=      5-min Rain = 0
KGU1 140742Z 30005KT M00/M03 A302 RMK A01 T10031033  RH  081%=      5-min Rain = 0
KGU1 140743Z 30005KT M00/M03 A302 RMK A01 T10031033  RH  080%=      5-min Rain = 0
KGU1 140744Z 30006KT M00/M03 A302 RMK A01 T10031034  RH  080%=      5-min Rain = 0
KGU1 140745Z 30006KT M00/M04 A302 RMK A01 T10041035  RH  080%=      5-min Rain = 0
KGU1 140746Z 30005KT M01/M04 A302 RMK A01 T10051036  RH  080%=      5-min Rain = 0
KGU1 140747Z 31004KT M01/M04 A302 RMK A01 T10051035  RH  081%=      5-min Rain = 0
KGU1 140748Z 30004KT M00/M03 A302 RMK A01 T10041034  RH  081%=      5-min Rain = 0
KGU1 140749Z 30005KT M00/M03 A302 RMK A01 T10041034  RH  081%=      5-min Rain = 0
KGU1 140750Z 30005KT M00/M03 A302 RMK A01 T10031034  RH  080%=      5-min Rain = 0
KGU1 140751Z 30005KT M00/M03 A302 RMK A01 T10031034  RH  080%=      5-min Rain = 0
KGU1 140752Z 30005KT M00/M03 A302 RMK A01 T10021034  RH  080%=      5-min Rain = 0
KGU1 140753Z 30005KT M00/M03 A302 RMK A01 T10021034  RH  080%=      5-min Rain = 0
KGU1 140754Z 30006KT M00/M03 A302 RMK A01 T10031034  RH  080%=      5-min Rain = 0
KGU1 140755Z 29006KT M00/M04 A302 RMK A01 T10031035  RH  080%=      5-min Rain = 0
KGU1 140756Z 30007KT M00/M04 A302 RMK A01 T10041035  RH  080%=      5-min Rain = 0
KGU1 140757Z 31007KT M00/M04 A302 RMK A01 T10041035  RH  080%=      5-min Rain = 0
KGU1 140758Z 31006KT M01/M04 A302 RMK A01 T10051035  RH  080%=      5-min Rain = 0
KGU1 140759Z 31005KT M01/M03 A302 RMK A01 T10051034  RH  081%=      5-min Rain = 0
KGU1 140800Z 31005KT M01/M03 A302 RMK A01 T10051034  RH  081%=      5-min Rain = 0
KGU1 140801Z 29005KT M01/M03 A302 RMK A01 T10051034  RH  081%=      5-min Rain = 0
KGU1 140802Z 30004KT M01/M03 A302 RMK A01 T10061034  RH  081%=      5-min Rain = 0
KGU1 140803Z 31003KT M01/M03 A302 RMK A01 T10051034  RH  081%=      5-min Rain = 0
KGU1 140804Z 31003KT M00/M03 A302 RMK A01 T10041033  RH  081%=      5-min Rain = 0
KGU1 140805Z 28006KT M00/M03 A302 RMK A01 T10041034  RH  080%=      5-min Rain = 0
KGU1 140806Z 29006KT M01/M04 A302 RMK A01 T10051036  RH  080%=      5-min Rain = 0
KGU1 140807Z 29004KT M01/M04 A302 RMK A01 T10061037  RH  080%=      5-min Rain = 0
KGU1 140808Z 31004KT M01/M04 A302 RMK A01 T10051036  RH  080%=      5-min Rain = 0
KGU1 140809Z 31005KT M00/M04 A302 RMK A01 T10041035  RH  080%=      5-min Rain = 0
KGU1 140810Z 30006KT M00/M04 A302 RMK A01 T10041035  RH  080%=      5-min Rain = 0
KGU1 140811Z 30004KT M01/M04 A302 RMK A01 T10051036  RH  080%=      5-min Rain = 0
KGU1 140812Z 31003KT M00/M03 A302 RMK A01 T10041034  RH  081%=      5-min Rain = 0
KGU1 140813Z 29004KT M00/M03 A302 RMK A01 T10031034  RH  080%=      5-min Rain = 0
KGU1 140814Z 29004KT M00/M04 A3019 RMK A01 T10031035  RH  080%=      5-min Rain = 0
KGU1 140815Z 29004KT M00/M04 A3019 RMK A01 T10041036  RH  079%=      5-min Rain = 0
KGU1 140816Z 29003KT M00/M04 A3019 RMK A01 T10041035  RH  080%=      5-min Rain = 0
KGU1 140817Z 30002KT M00/M03 A3019 RMK A01 T10031034  RH  080%=      5-min Rain = 0
KGU1 140818Z 31002KT M00/M04 A3019 RMK A01 T10021035  RH  079%=      5-min Rain = 0
KGU1 140819Z 31002KT M00/M04 A3019 RMK A01 T10021036  RH  078%=      5-min Rain = 0
KGU1 140820Z 31003KT M00/M04 A3019 RMK A01 T10031037  RH  078%=      5-min Rain = 0
KGU1 140821Z 31002KT M00/M04 A3019 RMK A01 T10031036  RH  079%=      5-min Rain = 0
KGU1 140822Z 32002KT 00/03 A3019 RMK A01 T00-00-32  RH  079%=      5-min Rain = 0
KGU1 140823Z 33002KT 00/M03 A3019 RMK A01 T00041030  RH  078%=      5-min Rain = 0
KGU1 140824Z 33002KT 01/M03 A3019 RMK A01 T00071031  RH  076%=      5-min Rain = 0
KGU1 140825Z 31003KT 01/M04 A3019 RMK A01 T00051035  RH  075%=      5-min Rain = 0
KGU1 140826Z 31002KT 00/M03 A3019 RMK A01 T00041034  RH  076%=      5-min Rain = 0
KGU1 140827Z 33002KT 01/M03 A3019 RMK A01 T00071031  RH  076%=      5-min Rain = 0
KGU1 140828Z 34001KT 01/M03 A3019 RMK A01 T00091031  RH  075%=      5-min Rain = 0
KGU1 140829Z 33001KT 01/M03 A3019 RMK A01 T00111030  RH  074%=      5-min Rain = 0
KGU1 140830Z 31002KT 01/M03 A3019 RMK A01 T00121032  RH  073%=      5-min Rain = 0
KGU1 140831Z 31002KT 01/M03 A3019 RMK A01 T00101034  RH  073%=      5-min Rain = 0
KGU1 140832Z 32002KT 01/M04 A3019 RMK A01 T00081035  RH  074%=      5-min Rain = 0
KGU1 140833Z 34003KT 01/M03 A3019 RMK A01 T00071034  RH  075%=      5-min Rain = 0
KGU1 140834Z 34003KT 01/M03 A3019 RMK A01 T00081033  RH  075%=      5-min Rain = 0
KGU1 140835Z 30003KT 01/M03 A3019 RMK A01 T00071034  RH  074%=      5-min Rain = 0
KGU1 140836Z 28004KT 01/M04 A3018 RMK A01 T00051036  RH  074%=      5-min Rain = 0
KGU1 140837Z 30003KT 00/M04 A3019 RMK A01 T00041036  RH  075%=      5-min Rain = 0
KGU1 140838Z 32003KT 01/M03 A3019 RMK A01 T00061033  RH  076%=      5-min Rain = 0
KGU1 140839Z 33002KT 01/M03 A3019 RMK A01 T00101031  RH  074%=      5-min Rain = 0
KGU1 140840Z 32002KT 01/M03 A3019 RMK A01 T00121033  RH  073%=      5-min Rain = 0
KGU1 140841Z 34001KT 01/M04 A3019 RMK A01 T00121035  RH  072%=      5-min Rain = 0
KGU1 140842Z 33002KT 01/M03 A3019 RMK A01 T00121034  RH  072%=      5-min Rain = 0
KGU1 140843Z 33002KT 01/M04 A3019 RMK A01 T00111035  RH  072%=      5-min Rain = 0
KGU1 140844Z 34002KT 01/M04 A3019 RMK A01 T00091036  RH  072%=      5-min Rain = 0
KGU1 140845Z 33002KT 01/M04 A3019 RMK A01 T00081036  RH  073%=      5-min Rain = 0
KGU1 140846Z 29004KT 01/M04 A3019 RMK A01 T00071037  RH  073%=      5-min Rain = 0
KGU1 140847Z 29004KT 00/M04 A3019 RMK A01 T00041038  RH  073%=      5-min Rain = 0
KGU1 140848Z 30004KT 00/M04 A3019 RMK A01 T00041036  RH  075%=      5-min Rain = 0
KGU1 140849Z 32003KT 01/M04 A3019 RMK A01 T00051035  RH  075%=      5-min Rain = 0
KGU1 140850Z 33002KT 01/M03 A3019 RMK A01 T00061034  RH  075%=      5-min Rain = 0
KGU1 140851Z 31002KT 01/M04 A3019 RMK A01 T00061035  RH  074%=      5-min Rain = 0
KGU1 140852Z 30003KT 01/M04 A3019 RMK A01 T00061036  RH  074%=      5-min Rain = 0
KGU1 140853Z 31003KT 01/M04 A3019 RMK A01 T00051037  RH  074%=      5-min Rain = 0
KGU1 140854Z 33003KT 01/M04 A3019 RMK A01 T00051035  RH  075%=      5-min Rain = 0
KGU1 140855Z 33003KT 01/M03 A3019 RMK A01 T00081034  RH  074%=      5-min Rain = 0
KGU1 140856Z 34004KT 01/M04 A3019 RMK A01 T00091035  RH  073%=      5-min Rain = 0
KGU1 140857Z 34004KT 01/M04 A3019 RMK A01 T00091035  RH  073%=      5-min Rain = 0
KGU1 140858Z 34004KT 01/M04 A3019 RMK A01 T00071037  RH  073%=      5-min Rain = 0
KGU1 140859Z 32003KT 01/M04 A3019 RMK A01 T00051037  RH  074%=      5-min Rain = 0
KGU1 140900Z 31003KT 00/M04 A3019 RMK A01 T00041037  RH  074%=      5-min Rain = 0
KGU1 140901Z 32002KT 00/M04 A3019 RMK A01 T00041036  RH  075%=      5-min Rain = 0
KGU1 140902Z 33002KT 01/M03 A3019 RMK A01 T00071033  RH  075%=      5-min Rain = 0
KGU1 140903Z 33003KT 01/M03 A3019 RMK A01 T00101033  RH  073%=      5-min Rain = 0
KGU1 140904Z 32003KT 01/M04 A3019 RMK A01 T00101037  RH  071%=      5-min Rain = 0
KGU1 140905Z 31003KT 01/M04 A3019 RMK A01 T00061040  RH  072%=      5-min Rain = 0
KGU1 140906Z 31004KT 00/M04 A3019 RMK A01 T00041038  RH  074%=      5-min Rain = 0
KGU1 140907Z 31003KT 00/M04 A3019 RMK A01 T00041037  RH  074%=      5-min Rain = 0
KGU1 140908Z 32003KT 00/M04 A3019 RMK A01 T00041037  RH  074%=      5-min Rain = 0
KGU1 140909Z 33003KT 00/M04 A3019 RMK A01 T00031037  RH  075%=      5-min Rain = 0
KGU1 140910Z 33004KT 00/M04 A3019 RMK A01 T00031038  RH  074%=      5-min Rain = 0
KGU1 140911Z 32004KT 00/M04 A3019 RMK A01 T00011040  RH  074%=      5-min Rain = 0
KGU1 140912Z 31004KT M00/M04 A3019 RMK A01 T10021041  RH  075%=      5-min Rain = 0
KGU1 140913Z 32004KT M00/M04 A3019 RMK A01 T10031039  RH  077%=      5-min Rain = 0
KGU1 140914Z 31004KT M00/M04 A3019 RMK A01 T10021038  RH  077%=      5-min Rain = 0
KGU1 140915Z 31004KT 00/04 A3019 RMK A01 T00-00-36  RH  078%=      5-min Rain = 0
KGU1 140916Z 31005KT 00/04 A3019 RMK A01 T00-00-37  RH  077%=      5-min Rain = 0
KGU1 140917Z 31004KT M00/M04 A3019 RMK A01 T10021039  RH  077%=      5-min Rain = 0
KGU1 140918Z 31004KT M00/M04 A3019 RMK A01 T10031038  RH  077%=      5-min Rain = 0
KGU1 140919Z 31004KT M00/M04 A3019 RMK A01 T10031038  RH  078%=      5-min Rain = 0
KGU1 140920Z 31004KT M00/M04 A3019 RMK A01 T10031039  RH  077%=      5-min Rain = 0
KGU1 140921Z 31004KT M00/M04 A3019 RMK A01 T10041040  RH  077%=      5-min Rain = 0
KGU1 140922Z 30004KT M01/M04 A3019 RMK A01 T10051040  RH  078%=      5-min Rain = 0
KGU1 140923Z 30004KT M01/M04 A3019 RMK A01 T10051040  RH  078%=      5-min Rain = 0
KGU1 140924Z 30005KT M01/M04 A3019 RMK A01 T10061040  RH  078%=      5-min Rain = 0
KGU1 140925Z 30005KT M01/M04 A3019 RMK A01 T10061040  RH  078%=      5-min Rain = 0
KGU1 140926Z 30005KT M01/M04 A3019 RMK A01 T10061039  RH  078%=      5-min Rain = 0
KGU1 140927Z 30005KT M01/M04 A3019 RMK A01 T10051039  RH  079%=      5-min Rain = 0
KGU1 140928Z 30004KT M01/M04 A3019 RMK A01 T10051039  RH  078%=      5-min Rain = 0
KGU1 140929Z 30004KT M01/M04 A3019 RMK A01 T10051040  RH  078%=      5-min Rain = 0
KGU1 140930Z 31003KT M01/M04 A3019 RMK A01 T10051040  RH  078%=      5-min Rain = 0
KGU1 140931Z 31004KT M01/M04 A3019 RMK A01 T10051040  RH  078%=      5-min Rain = 0
KGU1 140932Z 31004KT M01/M04 A3019 RMK A01 T10061041  RH  077%=      5-min Rain = 0
KGU1 140933Z 31004KT M01/M04 A3019 RMK A01 T10061041  RH  077%=      5-min Rain = 0
KGU1 140934Z 30003KT M01/M04 A3019 RMK A01 T10051040  RH  077%=      5-min Rain = 0
KGU1 140935Z 30004KT M00/M04 A3019 RMK A01 T10041041  RH  077%=      5-min Rain = 0
KGU1 140936Z 30004KT M00/M04 A3019 RMK A01 T10041042  RH  076%=      5-min Rain = 0
KGU1 140937Z 30004KT M01/M04 A3019 RMK A01 T10051042  RH  076%=      5-min Rain = 0
KGU1 140938Z 31004KT M00/M04 A3019 RMK A01 T10041043  RH  076%=      5-min Rain = 0
KGU1 140939Z 32003KT M01/M04 A3019 RMK A01 T10051043  RH  076%=      5-min Rain = 0
KGU1 140940Z 36002KT M01/M04 A3019 RMK A01 T10051042  RH  076%=      5-min Rain = 0
KGU1 140941Z 02002KT M00/M04 A3019 RMK A01 T10021039  RH  076%=      5-min Rain = 0
KGU1 140942Z 03003KT 00/04 A3019 RMK A01 T00000-39  RH  075%=      5-min Rain = 0
KGU1 140943Z 03003KT 00/M04 A3019 RMK A01 T00021038  RH  075%=      5-min Rain = 0
KGU1 140944Z 02003KT 00/M04 A3019 RMK A01 T00031038  RH  074%=      5-min Rain = 0
KGU1 140945Z 02003KT 00/M04 A3019 RMK A01 T00041037  RH  074%=      5-min Rain = 0
KGU1 140946Z 02003KT 01/M04 A3019 RMK A01 T00051037  RH  074%=      5-min Rain = 0
KGU1 140947Z 02003KT 01/M04 A3019 RMK A01 T00061037  RH  073%=      5-min Rain = 0
KGU1 140948Z 02002KT 01/M04 A3019 RMK A01 T00061037  RH  073%=      5-min Rain = 0
KGU1 140949Z 02002KT 01/M04 A3019 RMK A01 T00071037  RH  073%=      5-min Rain = 0
KGU1 140950Z 02002KT 01/M04 A3019 RMK A01 T00081036  RH  073%=      5-min Rain = 0
KGU1 140951Z 02002KT 01/M04 A3019 RMK A01 T00071036  RH  073%=      5-min Rain = 0
KGU1 140952Z 01002KT 01/M04 A3019 RMK A01 T00081036  RH  073%=      5-min Rain = 0
KGU1 140953Z 02002KT 01/M04 A3019 RMK A01 T00081035  RH  073%=      5-min Rain = 0
KGU1 140954Z 03002KT 01/M03 A3019 RMK A01 T00081034  RH  074%=      5-min Rain = 0
KGU1 140955Z 04002KT 01/M03 A3019 RMK A01 T00081034  RH  074%=      5-min Rain = 0
KGU1 140956Z 06002KT 01/M03 A3019 RMK A01 T00081034  RH  074%=      5-min Rain = 0
KGU1 140957Z 07003KT 01/M03 A3019 RMK A01 T00081033  RH  074%=      5-min Rain = 0
KGU1 140958Z 05003KT 01/M03 A3019 RMK A01 T00081033  RH  074%=      5-min Rain = 0
KGU1 140959Z 07002KT 01/M03 A3019 RMK A01 T00081033  RH  074%=      5-min Rain = 0
KGU1 141000Z 06002KT 01/M03 A3019 RMK A01 T00081033  RH  074%=      5-min Rain = 0
KGU1 141001Z 06002KT 01/M03 A3019 RMK A01 T00071034  RH  074%=      5-min Rain = 0
KGU1 141002Z 07003KT 01/M04 A3019 RMK A01 T00061035  RH  075%=      5-min Rain = 0
KGU1 141003Z 07003KT 01/M04 A3019 RMK A01 T00051036  RH  075%=      5-min Rain = 0
KGU1 141004Z 05002KT 00/M04 A3019 RMK A01 T00031036  RH  076%=      5-min Rain = 0
KGU1 141005Z 05001KT 00/M04 A3019 RMK A01 T00021036  RH  076%=      5-min Rain = 0
KGU1 141006Z 04001KT 00/M04 A3019 RMK A01 T00011036  RH  077%=      5-min Rain = 0
KGU1 141007Z 04001KT 00/04 A3019 RMK A01 T00-00-37  RH  077%=      5-min Rain = 0
KGU1 141008Z 05001KT M00/M04 A3019 RMK A01 T10011036  RH  077%=      5-min Rain = 0
KGU1 141009Z 05001KT M00/M04 A3019 RMK A01 T10011036  RH  078%=      5-min Rain = 0
KGU1 141010Z 05001KT M00/M04 A3019 RMK A01 T10021036  RH  078%=      5-min Rain = 0
KGU1 141011Z 07001KT M00/M04 A3019 RMK A01 T10021036  RH  078%=      5-min Rain = 0
KGU1 141012Z 07001KT M00/M04 A3019 RMK A01 T10021036  RH  079%=      5-min Rain = 0
KGU1 141013Z 07001KT M00/M04 A3019 RMK A01 T10021035  RH  079%=      5-min Rain = 0
KGU1 141014Z 06001KT M00/M04 A3019 RMK A01 T10021035  RH  079%=      5-min Rain = 0
KGU1 141015Z 06002KT M00/M03 A3019 RMK A01 T10021034  RH  080%=      5-min Rain = 0
KGU1 141016Z 06002KT M00/M03 A3019 RMK A01 T10021034  RH  080%=      5-min Rain = 0
KGU1 141017Z 07002KT M00/M03 A3019 RMK A01 T10021034  RH  080%=      5-min Rain = 0
KGU1 141018Z 07002KT M00/M03 A3019 RMK A01 T10021034  RH  080%=      5-min Rain = 0
KGU1 141019Z 08002KT M00/M03 A3019 RMK A01 T10031034  RH  080%=      5-min Rain = 0
KGU1 141020Z 08002KT M00/M03 A3019 RMK A01 T10021034  RH  080%=      5-min Rain = 0
KGU1 141021Z 07002KT M00/M04 A3019 RMK A01 T10031035  RH  080%=      5-min Rain = 0
KGU1 141022Z 08002KT M00/M04 A3019 RMK A01 T10041035  RH  080%=      5-min Rain = 0
KGU1 141023Z 09002KT M00/M04 A3019 RMK A01 T10041035  RH  080%=      5-min Rain = 0
KGU1 141024Z 11003KT M01/M04 A3019 RMK A01 T10051035  RH  080%=      5-min Rain = 0
KGU1 141025Z 10003KT M01/M04 A3019 RMK A01 T10051036  RH  080%=      5-min Rain = 0
KGU1 141026Z 10005KT M01/M04 A3019 RMK A01 T10071037  RH  080%=      5-min Rain = 0
KGU1 141027Z 10006KT M01/M04 A3019 RMK A01 T10091039  RH  080%=      5-min Rain = 0
KGU1 141028Z 08006KT M01/M04 A3019 RMK A01 T10121040  RH  082%=      5-min Rain = 0
KGU1 141029Z 08006KT M01/M04 A3019 RMK A01 T10131038  RH  083%=      5-min Rain = 0
KGU1 141030Z 07006KT M01/M04 A3019 RMK A01 T10131036  RH  085%=      5-min Rain = 0
KGU1 141031Z 06005KT M01/M03 A3019 RMK A01 T10121034  RH  086%=      5-min Rain = 0
KGU1 141032Z 06004KT M01/M03 A3019 RMK A01 T10121034  RH  086%=      5-min Rain = 0
KGU1 141033Z 05004KT M01/M04 A3019 RMK A01 T10131035  RH  085%=      5-min Rain = 0
KGU1 141034Z 05005KT M02/M04 A3019 RMK A01 T10151037  RH  085%=      5-min Rain = 0
KGU1 141035Z 05003KT M02/M04 A302 RMK A01 T10161038  RH  086%=      5-min Rain = 0
KGU1 141036Z 05004KT M02/M04 A302 RMK A01 T10171038  RH  086%=      5-min Rain = 0
KGU1 141037Z 05005KT M02/M04 A302 RMK A01 T10171037  RH  086%=      5-min Rain = 0
KGU1 141038Z 03004KT M02/M04 A302 RMK A01 T10171037  RH  087%=      5-min Rain = 0
KGU1 141039Z 03003KT M02/M04 A302 RMK A01 T10181037  RH  087%=      5-min Rain = 0
KGU1 141040Z 02002KT M02/M04 A302 RMK A01 T10181037  RH  087%=      5-min Rain = 0
KGU1 141041Z 02002KT M02/M04 A302 RMK A01 T10191038  RH  087%=      5-min Rain = 0
KGU1 141042Z 03001KT M02/M04 A302 RMK A01 T10191038  RH  087%=      5-min Rain = 0
KGU1 141043Z 03001KT M02/M04 A302 RMK A01 T10201038  RH  088%=      5-min Rain = 0
KGU1 141044Z 00000KT M02/M04 A302 RMK A01 T10201038  RH  088%=      5-min Rain = 0
KGU1 141045Z 00000KT M02/M04 A302 RMK A01 T10201038  RH  088%=      5-min Rain = 0
KGU1 141046Z 00000KT M02/M04 A302 RMK A01 T10201038  RH  088%=      5-min Rain = 0
KGU1 141047Z 31001KT M02/M04 A302 RMK A01 T10201037  RH  088%=      5-min Rain = 0
KGU1 141048Z 31001KT M02/M04 A302 RMK A01 T10191036  RH  089%=      5-min Rain = 0
KGU1 141049Z 30002KT M02/M04 A302 RMK A01 T10191037  RH  088%=      5-min Rain = 0
KGU1 141050Z 30002KT M02/M04 A302 RMK A01 T10201038  RH  088%=      5-min Rain = 0
KGU1 141051Z 33002KT M02/M04 A3019 RMK A01 T10201038  RH  088%=      5-min Rain = 0
KGU1 141052Z 36002KT M02/M04 A3019 RMK A01 T10191036  RH  089%=      5-min Rain = 0
KGU1 141053Z 36002KT M02/M04 A3019 RMK A01 T10181035  RH  089%=      5-min Rain = 0
KGU1 141054Z 32002KT M02/M04 A3019 RMK A01 T10181036  RH  088%=      5-min Rain = 0
KGU1 141055Z 30003KT M02/M04 A3019 RMK A01 T10191037  RH  088%=      5-min Rain = 0
KGU1 141056Z 31002KT M02/M04 A3019 RMK A01 T10201039  RH  087%=      5-min Rain = 0
KGU1 141057Z 30002KT M02/M04 A3019 RMK A01 T10221040  RH  087%=      5-min Rain = 0
KGU1 141058Z 30002KT M02/M04 A3019 RMK A01 T10221041  RH  088%=      5-min Rain = 0
KGU1 141059Z 30003KT M02/M04 A3019 RMK A01 T10231041  RH  088%=      5-min Rain = 0
KGU1 141100Z 30003KT M02/M04 A3019 RMK A01 T10241043  RH  088%=      5-min Rain = 0
KGU1 141101Z 31003KT M03/M04 A3019 RMK A01 T10261044  RH  088%=      5-min Rain = 0
KGU1 141102Z 30004KT M03/M05 A3019 RMK A01 T10271045  RH  088%=      5-min Rain = 0
KGU1 141103Z 28004KT M03/M05 A3019 RMK A01 T10281045  RH  088%=      5-min Rain = 0
KGU1 141104Z 28004KT M03/M04 A3019 RMK A01 T10271042  RH  089%=      5-min Rain = 0
KGU1 141105Z 30004KT M03/M04 A3019 RMK A01 T10271042  RH  089%=      5-min Rain = 0
KGU1 141106Z 29004KT M03/M05 A3019 RMK A01 T10281045  RH  089%=      5-min Rain = 0
KGU1 141107Z 27005KT M03/M05 A3019 RMK A01 T10291045  RH  089%=      5-min Rain = 0
KGU1 141108Z 27003KT M03/M04 A3019 RMK A01 T10281042  RH  090%=      5-min Rain = 0
KGU1 141109Z 29003KT M03/M04 A3018 RMK A01 T10251039  RH  091%=      5-min Rain = 0
KGU1 141110Z 29003KT M03/M04 A3018 RMK A01 T10261041  RH  090%=      5-min Rain = 0
KGU1 141111Z 29004KT M03/M04 A3019 RMK A01 T10281044  RH  089%=      5-min Rain = 0
KGU1 141112Z 30004KT M03/M04 A3019 RMK A01 T10281044  RH  089%=      5-min Rain = 0
KGU1 141113Z 29005KT M03/M04 A3019 RMK A01 T10291044  RH  090%=      5-min Rain = 0
KGU1 141114Z 27005KT M03/M05 A3019 RMK A01 T10291045  RH  090%=      5-min Rain = 0
KGU1 141115Z 26003KT M03/M05 A3019 RMK A01 T10301045  RH  090%=      5-min Rain = 0
KGU1 141116Z 26002KT M03/M05 A3019 RMK A01 T10301045  RH  090%=      5-min Rain = 0
KGU1 141117Z 27002KT M03/M04 A3019 RMK A01 T10301044  RH  090%=      5-min Rain = 0
KGU1 141118Z 28002KT M03/M04 A3019 RMK A01 T10291044  RH  090%=      5-min Rain = 0
KGU1 141119Z 29003KT M03/M04 A3019 RMK A01 T10281042  RH  090%=      5-min Rain = 0
KGU1 141120Z 29003KT M03/M04 A3019 RMK A01 T10251039  RH  091%=      5-min Rain = 0
KGU1 141121Z 29003KT M02/M04 A3019 RMK A01 T10231038  RH  090%=      5-min Rain = 0
KGU1 141122Z 29004KT M02/M04 A3019 RMK A01 T10221038  RH  089%=      5-min Rain = 0
KGU1 141123Z 29004KT M02/M04 A3019 RMK A01 T10201037  RH  089%=      5-min Rain = 0
KGU1 141124Z 29003KT M02/M04 A3019 RMK A01 T10191037  RH  087%=      5-min Rain = 0
KGU1 141125Z 29004KT M02/M04 A3019 RMK A01 T10181039  RH  086%=      5-min Rain = 0
KGU1 141126Z 29003KT M02/M04 A3019 RMK A01 T10181039  RH  085%=      5-min Rain = 0
KGU1 141127Z 29004KT M02/M04 A3019 RMK A01 T10181040  RH  085%=      5-min Rain = 0
KGU1 141128Z 28005KT M02/M04 A3019 RMK A01 T10181041  RH  085%=      5-min Rain = 0
KGU1 141129Z 28005KT M02/M04 A3019 RMK A01 T10171039  RH  085%=      5-min Rain = 0
KGU1 141130Z 27005KT M02/M04 A3019 RMK A01 T10151037  RH  085%=      5-min Rain = 0
KGU1 141131Z 27005KT M01/M04 A3019 RMK A01 T10141038  RH  084%=      5-min Rain = 0
KGU1 141132Z 27004KT M01/M04 A3019 RMK A01 T10141040  RH  083%=      5-min Rain = 0
KGU1 141133Z 26003KT M02/M04 A3019 RMK A01 T10151042  RH  082%=      5-min Rain = 0
KGU1 141134Z 27003KT M01/M04 A3019 RMK A01 T10131040  RH  082%=      5-min Rain = 0
KGU1 141135Z 27004KT M01/M04 A3019 RMK A01 T10121040  RH  082%=      5-min Rain = 0
KGU1 141136Z 27005KT M01/M04 A3019 RMK A01 T10121041  RH  081%=      5-min Rain = 0
KGU1 141137Z 28006KT M01/M04 A3019 RMK A01 T10121041  RH  081%=      5-min Rain = 0
KGU1 141138Z 28007KT M01/M04 A3019 RMK A01 T10111041  RH  081%=      5-min Rain = 0
KGU1 141139Z 28006KT M01/M04 A3019 RMK A01 T10081038  RH  081%=      5-min Rain = 0
KGU1 141140Z 28006KT M01/M04 A3019 RMK A01 T10051036  RH  080%=      5-min Rain = 0
KGU1 141141Z 28005KT M00/M03 A3019 RMK A01 T10021034  RH  079%=      5-min Rain = 0
KGU1 141142Z 27005KT 01/M03 A3019 RMK A01 T00051032  RH  077%=      5-min Rain = 0
KGU1 141143Z 27005KT 01/M03 A3019 RMK A01 T00091034  RH  074%=      5-min Rain = 0
KGU1 141144Z 27005KT 01/M04 A3019 RMK A01 T00101035  RH  072%=      5-min Rain = 0
KGU1 141145Z 28005KT 01/M04 A3019 RMK A01 T00101036  RH  072%=      5-min Rain = 0
KGU1 141146Z 28006KT 01/M04 A3019 RMK A01 T00101037  RH  071%=      5-min Rain = 0
KGU1 141147Z 27005KT 01/M04 A3019 RMK A01 T00101036  RH  072%=      5-min Rain = 0
KGU1 141148Z 27005KT 01/M04 A3019 RMK A01 T00101036  RH  072%=      5-min Rain = 0
KGU1 141149Z 26004KT 01/M04 A3019 RMK A01 T00091036  RH  072%=      5-min Rain = 0
KGU1 141150Z 27004KT 01/M04 A3019 RMK A01 T00091036  RH  072%=      5-min Rain = 0
KGU1 141151Z 27005KT 01/M04 A3019 RMK A01 T00091036  RH  073%=      5-min Rain = 0
KGU1 141152Z 26005KT 01/M04 A3019 RMK A01 T00091036  RH  073%=      5-min Rain = 0
KGU1 141153Z 27005KT 01/M04 A302 RMK A01 T00081035  RH  073%=      5-min Rain = 0
KGU1 141154Z 27006KT 01/M04 A302 RMK A01 T00081036  RH  073%=      5-min Rain = 0
KGU1 141155Z 27006KT 01/M04 A302 RMK A01 T00081035  RH  073%=      5-min Rain = 0
KGU1 141156Z 28006KT 01/M03 A302 RMK A01 T00091034  RH  073%=      5-min Rain = 0
KGU1 141157Z 27007KT 01/M04 A302 RMK A01 T00091035  RH  073%=      5-min Rain = 0
KGU1 141158Z 28007KT 01/M03 A302 RMK A01 T00091034  RH  073%=      5-min Rain = 0
KGU1 141159Z 28007KT 01/M04 A302 RMK A01 T00081035  RH  073%=      5-min Rain = 0
KGU1 141200Z 28007KT 01/M04 A302 RMK A01 T00071036  RH  074%=      5-min Rain = 0
KGU1 141201Z 27007KT 01/M04 A302 RMK A01 T00051036  RH  074%=      5-min Rain = 0
KGU1 141202Z 27007KT 01/M04 A302 RMK A01 T00051035  RH  075%=      5-min Rain = 0
KGU1 141203Z 27007KT 01/M04 A302 RMK A01 T00071035  RH  074%=      5-min Rain = 0
KGU1 141204Z 27007KT 01/M04 A302 RMK A01 T00061036  RH  074%=      5-min Rain = 0
KGU1 141205Z 27007KT 01/M04 A302 RMK A01 T00051036  RH  074%=      5-min Rain = 0
KGU1 141206Z 27008KT 01/M03 A302 RMK A01 T00071034  RH  074%=      5-min Rain = 0
KGU1 141207Z 27007KT 01/M04 A302 RMK A01 T00071035  RH  074%=      5-min Rain = 0
KGU1 141208Z 27007KT 01/M03 A302 RMK A01 T00081034  RH  074%=      5-min Rain = 0
KGU1 141209Z 27007KT 01/M03 A302 RMK A01 T00081034  RH  074%=      5-min Rain = 0
KGU1 141210Z 27007KT 01/M03 A302 RMK A01 T00091034  RH  073%=      5-min Rain = 0
KGU1 141211Z 27007KT 01/M03 A302 RMK A01 T00101034  RH  073%=      5-min Rain = 0
KGU1 141212Z 27007KT 01/M03 A302 RMK A01 T00101034  RH  073%=      5-min Rain = 0
KGU1 141213Z 27007KT 01/M03 A3019 RMK A01 T00101033  RH  073%=      5-min Rain = 0
KGU1 141214Z 28007KT 01/M03 A3019 RMK A01 T00111033  RH  073%=      5-min Rain = 0
KGU1 141215Z 27007KT 01/M03 A3019 RMK A01 T00121033  RH  072%=      5-min Rain = 0
KGU1 141216Z 27007KT 01/M03 A302 RMK A01 T00131034  RH  072%=      5-min Rain = 0
KGU1 141217Z 26006KT 01/M03 A302 RMK A01 T00121034  RH  072%=      5-min Rain = 0
KGU1 141218Z 27006KT 01/M03 A302 RMK A01 T00121034  RH  072%=      5-min Rain = 0
KGU1 141219Z 27008KT 01/M03 A302 RMK A01 T00101034  RH  073%=      5-min Rain = 0
KGU1 141220Z 28008KT 01/M03 A302 RMK A01 T00101033  RH  073%=      5-min Rain = 0
KGU1 141221Z 28008KT 01/M03 A3019 RMK A01 T00101033  RH  073%=      5-min Rain = 0
KGU1 141222Z 28007KT 01/M03 A3019 RMK A01 T00091034  RH  074%=      5-min Rain = 0
KGU1 141223Z 28007KT 01/M03 A3019 RMK A01 T00081034  RH  074%=      5-min Rain = 0
KGU1 141224Z 27007KT 01/M03 A3019 RMK A01 T00091033  RH  074%=      5-min Rain = 0
KGU1 141225Z 28007KT 01/M03 A3019 RMK A01 T00101033  RH  073%=      5-min Rain = 0
KGU1 141226Z 28007KT 01/M03 A3019 RMK A01 T00101034  RH  073%=      5-min Rain = 0
KGU1 141227Z 28006KT 01/M03 A3019 RMK A01 T00101034  RH  073%=      5-min Rain = 0
KGU1 141228Z 28006KT 01/M03 A3019 RMK A01 T00101034  RH  073%=      5-min Rain = 0
KGU1 141229Z 28007KT 01/M04 A3019 RMK A01 T00091035  RH  073%=      5-min Rain = 0
KGU1 141230Z 28007KT 01/M03 A3019 RMK A01 T00091034  RH  074%=      5-min Rain = 0
KGU1 141231Z 28008KT 01/M03 A3019 RMK A01 T00091033  RH  074%=      5-min Rain = 0
KGU1 141232Z 28008KT 01/M03 A3019 RMK A01 T00091033  RH  074%=      5-min Rain = 0
KGU1 141233Z 28009KT 01/M03 A3019 RMK A01 T00091033  RH  074%=      5-min Rain = 0
KGU1 141234Z 28008KT 01/M03 A3019 RMK A01 T00101032  RH  074%=      5-min Rain = 0
KGU1 141235Z 28009KT 01/M03 A3019 RMK A01 T00111033  RH  073%=      5-min Rain = 0
KGU1 141236Z 28009KT 01/M03 A3019 RMK A01 T00111033  RH  073%=      5-min Rain = 0
KGU1 141237Z 28009KT 01/M03 A3019 RMK A01 T00111032  RH  073%=      5-min Rain = 0
KGU1 141238Z 28009KT 01/M03 A3019 RMK A01 T00121032  RH  073%=      5-min Rain = 0
KGU1 141239Z 28008KT 01/M03 A3019 RMK A01 T00111033  RH  073%=      5-min Rain = 0
KGU1 141240Z 27008KT 01/M03 A3019 RMK A01 T00091033  RH  074%=      5-min Rain = 0
KGU1 141241Z 28008KT 01/M03 A3019 RMK A01 T00091032  RH  074%=      5-min Rain = 0
KGU1 141242Z 28008KT 01/M03 A3019 RMK A01 T00091032  RH  075%=      5-min Rain = 0
KGU1 141243Z 27008KT 01/M03 A3019 RMK A01 T00081032  RH  075%=      5-min Rain = 0
KGU1 141244Z 28009KT 01/M03 A3019 RMK A01 T00081031  RH  075%=      5-min Rain = 0
KGU1 141245Z 28009KT 01/M03 A3019 RMK A01 T00091031  RH  075%=      5-min Rain = 0
KGU1 141246Z 28009KT 01/M03 A3019 RMK A01 T00091031  RH  075%=      5-min Rain = 0
KGU1 141247Z 28009KT 01/M03 A3019 RMK A01 T00101031  RH  075%=      5-min Rain = 0
KGU1 141248Z 28009KT 01/M03 A3019 RMK A01 T00111030  RH  074%=      5-min Rain = 0
KGU1 141249Z 27009KT 01/M03 A302 RMK A01 T00111031  RH  074%=      5-min Rain = 0
KGU1 141250Z 27008KT 01/M03 A302 RMK A01 T00121030  RH  074%=      5-min Rain = 0
KGU1 141251Z 26007KT 02/M03 A302 RMK A01 T00151029  RH  073%=      5-min Rain = 0
KGU1 141252Z 27009KT 02/M03 A302 RMK A01 T00171029  RH  072%=      5-min Rain = 0
KGU1 141253Z 27008KT 02/M03 A302 RMK A01 T00171030  RH  071%=      5-min Rain = 0
KGU1 141254Z 27008KT 02/M03 A302 RMK A01 T00171031  RH  071%=      5-min Rain = 0
KGU1 141255Z 28009KT 02/M03 A302 RMK A01 T00161030  RH  072%=      5-min Rain = 0
KGU1 141256Z 28009KT 02/M03 A302 RMK A01 T00151031  RH  072%=      5-min Rain = 0
KGU1 141257Z 28009KT 01/M03 A302 RMK A01 T00141031  RH  073%=      5-min Rain = 0
KGU1 141258Z 28008KT 02/M03 A302 RMK A01 T00151029  RH  073%=      5-min Rain = 0
KGU1 141259Z 28008KT 02/M03 A302 RMK A01 T00171030  RH  072%=      5-min Rain = 0
KGU1 141300Z 28008KT 02/M03 A302 RMK A01 T00171030  RH  071%=      5-min Rain = 0
KGU1 141301Z 28008KT 02/M03 A302 RMK A01 T00171031  RH  071%=      5-min Rain = 0
KGU1 141302Z 28009KT 02/M03 A302 RMK A01 T00151031  RH  072%=      5-min Rain = 0
KGU1 141303Z 28009KT 01/M03 A302 RMK A01 T00131031  RH  073%=      5-min Rain = 0
KGU1 141304Z 28009KT 01/M03 A302 RMK A01 T00131031  RH  073%=      5-min Rain = 0
KGU1 141305Z 28009KT 02/M03 A302 RMK A01 T00151029  RH  073%=      5-min Rain = 0
KGU1 141306Z 28009KT 02/M03 A302 RMK A01 T00181029  RH  072%=      5-min Rain = 0
KGU1 141307Z 28009KT 02/M03 A302 RMK A01 T00181030  RH  071%=      5-min Rain = 0
KGU1 141308Z 28008KT 02/M03 A302 RMK A01 T00171031  RH  071%=      5-min Rain = 0
KGU1 141309Z 28008KT 02/M03 A302 RMK A01 T00161030  RH  072%=      5-min Rain = 0
KGU1 141310Z 28008KT 02/M03 A302 RMK A01 T00161030  RH  072%=      5-min Rain = 0
KGU1 141311Z 28008KT 02/M03 A302 RMK A01 T00161030  RH  072%=      5-min Rain = 0
KGU1 141312Z 27008KT 02/M03 A302 RMK A01 T00161030  RH  072%=      5-min Rain = 0
KGU1 141313Z 28009KT 02/M03 A302 RMK A01 T00161030  RH  072%=      5-min Rain = 0
KGU1 141314Z 28008KT 02/M03 A302 RMK A01 T00171030  RH  072%=      5-min Rain = 0
KGU1 141315Z 27008KT 02/M03 A302 RMK A01 T00191029  RH  071%=      5-min Rain = 0
KGU1 141316Z 28008KT 02/M03 A302 RMK A01 T00191030  RH  070%=      5-min Rain = 0
KGU1 141317Z 28008KT 02/M03 A302 RMK A01 T00191030  RH  070%=      5-min Rain = 0
KGU1 141318Z 28008KT 02/M03 A302 RMK A01 T00191030  RH  070%=      5-min Rain = 0
KGU1 141319Z 28008KT 02/M03 A302 RMK A01 T00181030  RH  071%=      5-min Rain = 0
KGU1 141320Z 28008KT 02/M03 A302 RMK A01 T00181031  RH  071%=      5-min Rain = 0
KGU1 141321Z 28008KT 02/M03 A302 RMK A01 T00201030  RH  070%=      5-min Rain = 0
KGU1 141322Z 28008KT 02/M03 A302 RMK A01 T00221030  RH  069%=      5-min Rain = 0
KGU1 141323Z 28008KT 02/M03 A302 RMK A01 T00221031  RH  068%=      5-min Rain = 0
KGU1 141324Z 28008KT 02/M03 A302 RMK A01 T00221031  RH  068%=      5-min Rain = 0
KGU1 141325Z 28008KT 02/M03 A302 RMK A01 T00221032  RH  068%=      5-min Rain = 0
KGU1 141326Z 28008KT 02/M03 A302 RMK A01 T00211032  RH  068%=      5-min Rain = 0
KGU1 141327Z 28007KT 02/M03 A302 RMK A01 T00211032  RH  068%=      5-min Rain = 0
KGU1 141328Z 28006KT 02/M03 A302 RMK A01 T00211032  RH  069%=      5-min Rain = 0
KGU1 141329Z 28004KT 02/M03 A302 RMK A01 T00201032  RH  069%=      5-min Rain = 0
KGU1 141330Z 22002KT 02/M03 A302 RMK A01 T00191032  RH  069%=      5-min Rain = 0
KGU1 141331Z 22003KT 02/M03 A302 RMK A01 T00191031  RH  070%=      5-min Rain = 0
KGU1 141332Z 21003KT 02/M03 A302 RMK A01 T00191030  RH  070%=      5-min Rain = 0
KGU1 141333Z 22004KT 02/M03 A302 RMK A01 T00211029  RH  070%=      5-min Rain = 0
KGU1 141334Z 24003KT 02/M03 A302 RMK A01 T00221029  RH  069%=      5-min Rain = 0
KGU1 141335Z 24005KT 02/M03 A302 RMK A01 T00231029  RH  069%=      5-min Rain = 0
KGU1 141336Z 24006KT 03/M03 A302 RMK A01 T00251029  RH  068%=      5-min Rain = 0
KGU1 141337Z 26005KT 03/M03 A302 RMK A01 T00281029  RH  066%=      5-min Rain = 0
KGU1 141338Z 27005KT 03/M03 A302 RMK A01 T00291030  RH  065%=      5-min Rain = 0
KGU1 141339Z 27005KT 03/M03 A302 RMK A01 T00281032  RH  065%=      5-min Rain = 0
KGU1 141340Z 27004KT 03/M03 A302 RMK A01 T00271033  RH  065%=      5-min Rain = 0
KGU1 141341Z 28005KT 03/M03 A302 RMK A01 T00251034  RH  066%=      5-min Rain = 0
KGU1 141342Z 28005KT 02/M03 A302 RMK A01 T00231033  RH  067%=      5-min Rain = 0
KGU1 141343Z 28005KT 02/M03 A302 RMK A01 T00221034  RH  067%=      5-min Rain = 0
KGU1 141344Z 27005KT 02/M03 A302 RMK A01 T00221033  RH  067%=      5-min Rain = 0
KGU1 141345Z 28004KT 02/M03 A302 RMK A01 T00221034  RH  067%=      5-min Rain = 0
KGU1 141346Z 31004KT 02/M03 A302 RMK A01 T00211034  RH  067%=      5-min Rain = 0
KGU1 141347Z 31004KT 02/M03 A302 RMK A01 T00201034  RH  068%=      5-min Rain = 0
KGU1 141348Z 32004KT 02/M03 A302 RMK A01 T00211033  RH  068%=      5-min Rain = 0
KGU1 141349Z 32003KT 02/M03 A302 RMK A01 T00211033  RH  068%=      5-min Rain = 0
KGU1 141350Z 34002KT 02/M03 A302 RMK A01 T00221032  RH  068%=      5-min Rain = 0
KGU1 141351Z 31002KT 02/M03 A302 RMK A01 T00221032  RH  068%=      5-min Rain = 0
KGU1 141352Z 30001KT 02/M03 A302 RMK A01 T00231032  RH  067%=      5-min Rain = 0
KGU1 141353Z 28002KT 02/M03 A302 RMK A01 T00231032  RH  067%=      5-min Rain = 0
KGU1 141354Z 30002KT 02/M03 A302 RMK A01 T00231033  RH  067%=      5-min Rain = 0
KGU1 141355Z 29003KT 02/M03 A302 RMK A01 T00231033  RH  067%=      5-min Rain = 0
KGU1 141356Z 30004KT 02/M03 A302 RMK A01 T00231034  RH  066%=      5-min Rain = 0
KGU1 141357Z 28003KT 02/M04 A302 RMK A01 T00231035  RH  066%=      5-min Rain = 0
KGU1 141358Z 23003KT 02/M04 A302 RMK A01 T00231036  RH  066%=      5-min Rain = 0
KGU1 141359Z 24006KT 02/M04 A302 RMK A01 T00231035  RH  066%=      5-min Rain = 0
KGU1 141400Z 25003KT 03/M03 A302 RMK A01 T00251032  RH  066%=      5-min Rain = 0
KGU1 141401Z 20003KT 03/M03 A302 RMK A01 T00291029  RH  066%=      5-min Rain = 0
KGU1 141402Z 18003KT 03/M03 A302 RMK A01 T00311028  RH  066%=      5-min Rain = 0
KGU1 141403Z 17004KT 03/M03 A302 RMK A01 T00331027  RH  065%=      5-min Rain = 0
KGU1 141404Z 17003KT 03/M03 A302 RMK A01 T00341027  RH  065%=      5-min Rain = 0
KGU1 141405Z 19003KT 04/M03 A302 RMK A01 T00351026  RH  065%=      5-min Rain = 0
KGU1 141406Z 19003KT 04/M03 A302 RMK A01 T00351026  RH  065%=      5-min Rain = 0
KGU1 141407Z 19002KT 04/M03 A302 RMK A01 T00351026  RH  065%=      5-min Rain = 0
KGU1 141408Z 20001KT 04/M03 A3021 RMK A01 T00361025  RH  065%=      5-min Rain = 0
KGU1 141409Z 20000KT 04/M02 A3021 RMK A01 T00371024  RH  065%=      5-min Rain = 0
KGU1 141410Z 24001KT 04/M02 A3021 RMK A01 T00381024  RH  064%=      5-min Rain = 0
KGU1 141411Z 23001KT 04/M03 A3021 RMK A01 T00381025  RH  064%=      5-min Rain = 0
KGU1 141412Z 24002KT 04/M03 A302 RMK A01 T00381025  RH  064%=      5-min Rain = 0
KGU1 141413Z 24001KT 04/M02 A302 RMK A01 T00401024  RH  064%=      5-min Rain = 0
KGU1 141414Z 25001KT 04/M02 A302 RMK A01 T00421023  RH  063%=      5-min Rain = 0
KGU1 141415Z 25000KT 04/M02 A302 RMK A01 T00441022  RH  063%=      5-min Rain = 0
KGU1 141416Z 26001KT 05/M02 A302 RMK A01 T00451022  RH  062%=      5-min Rain = 0
KGU1 141417Z 26001KT 05/M02 A3021 RMK A01 T00461021  RH  062%=      5-min Rain = 0
KGU1 141418Z 24002KT 05/M02 A3021 RMK A01 T00471021  RH  062%=      5-min Rain = 0
KGU1 141419Z 24002KT 05/M02 A3021 RMK A01 T00481022  RH  061%=      5-min Rain = 0
KGU1 141420Z 25002KT 05/M02 A3021 RMK A01 T00501020  RH  061%=      5-min Rain = 0
KGU1 141421Z 25003KT 05/M02 A3021 RMK A01 T00501022  RH  060%=      5-min Rain = 0
KGU1 141422Z 23002KT 05/M02 A3021 RMK A01 T00481021  RH  061%=      5-min Rain = 0
KGU1 141423Z 22002KT 05/M02 A3021 RMK A01 T00471020  RH  062%=      5-min Rain = 0
KGU1 141424Z 22003KT 05/M02 A3021 RMK A01 T00471018  RH  063%=      5-min Rain = 0
KGU1 141425Z 20004KT 05/M02 A3021 RMK A01 T00461020  RH  063%=      5-min Rain = 0
KGU1 141426Z 21003KT 05/M02 A3021 RMK A01 T00461020  RH  063%=      5-min Rain = 0
KGU1 141427Z 21002KT 05/M02 A3021 RMK A01 T00461020  RH  063%=      5-min Rain = 0
KGU1 141428Z 22003KT 05/M02 A3021 RMK A01 T00471019  RH  063%=      5-min Rain = 0
KGU1 141429Z 22003KT 05/M02 A3021 RMK A01 T00481019  RH  062%=      5-min Rain = 0
KGU1 141430Z 22003KT 05/M02 A3021 RMK A01 T00491019  RH  062%=      5-min Rain = 0
KGU1 141431Z 22004KT 05/M02 A3021 RMK A01 T00511018  RH  061%=      5-min Rain = 0
KGU1 141432Z 21003KT 05/M02 A3021 RMK A01 T00531019  RH  060%=      5-min Rain = 0
KGU1 141433Z 21004KT 06/M02 A3021 RMK A01 T00551018  RH  060%=      5-min Rain = 0
KGU1 141434Z 21004KT 06/M02 A3021 RMK A01 T00571018  RH  059%=      5-min Rain = 0
KGU1 141435Z 20004KT 06/M02 A3021 RMK A01 T00581019  RH  058%=      5-min Rain = 0
KGU1 141436Z 20004KT 06/M02 A3021 RMK A01 T00591019  RH  058%=      5-min Rain = 0
KGU1 141437Z 20005KT 06/M02 A3021 RMK A01 T00591020  RH  057%=      5-min Rain = 0
KGU1 141438Z 20005KT 06/M02 A3021 RMK A01 T00601020  RH  057%=      5-min Rain = 0
KGU1 141439Z 20005KT 06/M02 A3021 RMK A01 T00601020  RH  057%=      5-min Rain = 0
KGU1 141440Z 20005KT 06/M02 A3021 RMK A01 T00601020  RH  057%=      5-min Rain = 0
KGU1 141441Z 20005KT 06/M02 A3021 RMK A01 T00601020  RH  057%=      5-min Rain = 0
KGU1 141442Z 21006KT 06/M02 A3021 RMK A01 T00611020  RH  056%=      5-min Rain = 0
KGU1 141443Z 21006KT 06/M02 A3021 RMK A01 T00611020  RH  056%=      5-min Rain = 0
KGU1 141444Z 21007KT 06/M02 A3021 RMK A01 T00621020  RH  056%=      5-min Rain = 0
KGU1 141445Z 20007KT 06/M02 A3021 RMK A01 T00621021  RH  056%=      5-min Rain = 0
KGU1 141446Z 21005KT 06/M02 A3021 RMK A01 T00631021  RH  056%=      5-min Rain = 0
KGU1 141447Z 21006KT 06/M02 A3021 RMK A01 T00631021  RH  055%=      5-min Rain = 0
KGU1 141448Z 20005KT 06/M02 A3021 RMK A01 T00641019  RH  056%=      5-min Rain = 0
KGU1 141449Z 20004KT 06/M02 A3021 RMK A01 T00641019  RH  056%=      5-min Rain = 0
KGU1 141450Z 20005KT 07/M02 A3021 RMK A01 T00651018  RH  056%=      5-min Rain = 0
KGU1 141451Z 20006KT 07/M02 A3021 RMK A01 T00651020  RH  055%=      5-min Rain = 0
KGU1 141452Z 20005KT 07/M02 A3021 RMK A01 T00651020  RH  055%=      5-min Rain = 0
KGU1 141453Z 19004KT 07/M02 A3021 RMK A01 T00661017  RH  056%=      5-min Rain = 0
KGU1 141454Z 19006KT 07/M02 A3021 RMK A01 T00661019  RH  055%=      5-min Rain = 0
KGU1 141455Z 19006KT 07/M02 A3021 RMK A01 T00661018  RH  055%=      5-min Rain = 0
KGU1 141456Z 20006KT 07/M02 A3021 RMK A01 T00661020  RH  055%=      5-min Rain = 0
KGU1 141457Z 19005KT 07/M02 A3021 RMK A01 T00661020  RH  055%=      5-min Rain = 0
KGU1 141458Z 19007KT 07/M02 A3022 RMK A01 T00671021  RH  054%=      5-min Rain = 0
KGU1 141459Z 19007KT 07/M02 A3022 RMK A01 T00671020  RH  054%=      5-min Rain = 0
KGU1 141500Z 19007KT 07/M02 A3022 RMK A01 T00671021  RH  054%=      5-min Rain = 0
KGU1 141501Z 20007KT 07/M02 A3022 RMK A01 T00671022  RH  054%=      5-min Rain = 0
KGU1 141502Z 19006KT 07/M02 A3022 RMK A01 T00671021  RH  054%=      5-min Rain = 0
KGU1 141503Z 19006KT 07/M02 A3022 RMK A01 T00671021  RH  054%=      5-min Rain = 0
KGU1 141504Z 20005KT 07/M02 A3022 RMK A01 T00671021  RH  054%=      5-min Rain = 0
KGU1 141505Z 21005KT 07/M02 A3022 RMK A01 T00691019  RH  054%=      5-min Rain = 0
KGU1 141506Z 21004KT 07/M02 A3022 RMK A01 T00701020  RH  053%=      5-min Rain = 0
KGU1 141507Z 20005KT 07/M02 A3022 RMK A01 T00711020  RH  053%=      5-min Rain = 0
KGU1 141508Z 21005KT 07/M02 A3022 RMK A01 T00721020  RH  052%=      5-min Rain = 0
KGU1 141509Z 21005KT 07/M02 A3022 RMK A01 T00731020  RH  052%=      5-min Rain = 0
KGU1 141510Z 21005KT 07/M02 A3022 RMK A01 T00741020  RH  052%=      5-min Rain = 0
KGU1 141511Z 21004KT 08/M02 A3022 RMK A01 T00751022  RH  051%=      5-min Rain = 0
KGU1 141512Z 22004KT 08/M02 A3022 RMK A01 T00751022  RH  051%=      5-min Rain = 0
KGU1 141513Z 22003KT 08/M02 A3022 RMK A01 T00761020  RH  051%=      5-min Rain = 0
KGU1 141514Z 22004KT 08/M02 A3022 RMK A01 T00781019  RH  051%=      5-min Rain = 0
KGU1 141515Z 22004KT 08/M02 A3022 RMK A01 T00781021  RH  050%=      5-min Rain = 0
KGU1 141516Z 20003KT 08/M02 A3022 RMK A01 T00791019  RH  050%=      5-min Rain = 0
KGU1 141517Z 22003KT 08/M02 A3022 RMK A01 T00801017  RH  050%=      5-min Rain = 0
KGU1 141518Z 20003KT 08/M02 A3022 RMK A01 T00821016  RH  050%=      5-min Rain = 0
KGU1 141519Z 21006KT 08/M02 A3022 RMK A01 T00831019  RH  049%=      5-min Rain = 0
KGU1 141520Z 21006KT 08/M02 A3022 RMK A01 T00821019  RH  049%=      5-min Rain = 0
KGU1 141521Z 21005KT 08/M02 A3022 RMK A01 T00831022  RH  048%=      5-min Rain = 0
KGU1 141522Z 20005KT 08/M02 A3022 RMK A01 T00831019  RH  049%=      5-min Rain = 0
KGU1 141523Z 22005KT 08/M02 A3022 RMK A01 T00841020  RH  048%=      5-min Rain = 0
KGU1 141524Z 22005KT 08/M02 A3022 RMK A01 T00841022  RH  048%=      5-min Rain = 0
KGU1 141525Z 22006KT 09/M02 A3022 RMK A01 T00851022  RH  047%=      5-min Rain = 0
KGU1 141526Z 22005KT 09/M02 A3022 RMK A01 T00851023  RH  047%=      5-min Rain = 0
KGU1 141527Z 22006KT 09/M02 A3022 RMK A01 T00861022  RH  047%=      5-min Rain = 0
KGU1 141528Z 21007KT 09/M03 A3022 RMK A01 T00861026  RH  046%=      5-min Rain = 0
KGU1 141529Z 21006KT 09/M03 A3022 RMK A01 T00861026  RH  046%=      5-min Rain = 0
KGU1 141530Z 21004KT 09/M03 A3022 RMK A01 T00861025  RH  046%=      5-min Rain = 0
KGU1 141531Z 21006KT 09/M02 A3022 RMK A01 T00871021  RH  047%=      5-min Rain = 0
KGU1 141532Z 21006KT 09/M02 A3022 RMK A01 T00881022  RH  046%=      5-min Rain = 0
KGU1 141533Z 22005KT 09/M02 A3022 RMK A01 T00891022  RH  046%=      5-min Rain = 0
KGU1 141534Z 22003KT 09/M03 A3022 RMK A01 T00891025  RH  045%=      5-min Rain = 0
KGU1 141535Z 23004KT 09/M02 A3022 RMK A01 T00891021  RH  046%=      5-min Rain = 0
KGU1 141536Z 21005KT 09/M02 A3022 RMK A01 T00911021  RH  046%=      5-min Rain = 0
KGU1 141537Z 20006KT 09/M02 A3022 RMK A01 T00911022  RH  045%=      5-min Rain = 0
KGU1 141538Z 23007KT 09/M02 A3022 RMK A01 T00901024  RH  045%=      5-min Rain = 0
KGU1 141539Z 23007KT 09/M03 A3022 RMK A01 T00891025  RH  045%=      5-min Rain = 0
KGU1 141540Z 21005KT 09/M02 A3022 RMK A01 T00891022  RH  046%=      5-min Rain = 0
KGU1 141541Z 21007KT 09/M02 A3022 RMK A01 T00891024  RH  045%=      5-min Rain = 0
KGU1 141542Z 23006KT 09/M03 A3022 RMK A01 T00881026  RH  045%=      5-min Rain = 0
KGU1 141543Z 21006KT 09/M03 A3023 RMK A01 T00881025  RH  045%=      5-min Rain = 0
KGU1 141544Z 21006KT 09/M02 A3023 RMK A01 T00881024  RH  046%=      5-min Rain = 0
KGU1 141545Z 23005KT 09/M02 A3023 RMK A01 T00901021  RH  046%=      5-min Rain = 0
KGU1 141546Z 21005KT 09/M02 A3023 RMK A01 T00901022  RH  045%=      5-min Rain = 0
KGU1 141547Z 21006KT 09/M02 A3023 RMK A01 T00911022  RH  045%=      5-min Rain = 0
KGU1 141548Z 22008KT 09/M02 A3023 RMK A01 T00911023  RH  045%=      5-min Rain = 0
KGU1 141549Z 22007KT 09/M03 A3023 RMK A01 T00901026  RH  044%=      5-min Rain = 0
KGU1 141550Z 21009KT 09/M03 A3023 RMK A01 T00891025  RH  045%=      5-min Rain = 0
KGU1 141551Z 20009KT 09/M02 A3023 RMK A01 T00901024  RH  045%=      5-min Rain = 0
KGU1 141552Z 19008KT 09/M03 A3023 RMK A01 T00901025  RH  045%=      5-min Rain = 0
KGU1 141553Z 20007KT 09/M03 A3023 RMK A01 T00891025  RH  045%=      5-min Rain = 0
KGU1 141554Z 21007KT 09/M02 A3023 RMK A01 T00891024  RH  045%=      5-min Rain = 0
KGU1 141555Z 20007KT 09/M02 A3023 RMK A01 T00901023  RH  045%=      5-min Rain = 0
KGU1 141556Z 20008KT 09/M02 A3023 RMK A01 T00901024  RH  045%=      5-min Rain = 0
KGU1 141557Z 21007KT 09/M02 A3023 RMK A01 T00921021  RH  045%=      5-min Rain = 0
KGU1 141558Z 22009KT 09/M02 A3023 RMK A01 T00921024  RH  044%=      5-min Rain = 0
KGU1 141559Z 21009KT 09/M02 A3023 RMK A01 T00921024  RH  044%=      5-min Rain = 0
KGU1 141600Z 20008KT 09/M02 A3023 RMK A01 T00921024  RH  044%=      5-min Rain = 0
KGU1 141601Z 20007KT 09/M02 A3023 RMK A01 T00931022  RH  045%=      5-min Rain = 0
KGU1 141602Z 20008KT 09/M02 A3023 RMK A01 T00941021  RH  045%=      5-min Rain = 0
KGU1 141603Z 20008KT 09/M02 A3023 RMK A01 T00941024  RH  044%=      5-min Rain = 0
KGU1 141604Z 22007KT 09/M02 A3023 RMK A01 T00941022  RH  044%=      5-min Rain = 0
KGU1 141605Z 23008KT 09/M02 A3023 RMK A01 T00941023  RH  044%=      5-min Rain = 0
KGU1 141606Z 22006KT 09/M02 A3023 RMK A01 T00941024  RH  044%=      5-min Rain = 0
KGU1 141607Z 21006KT 09/M03 A3023 RMK A01 T00931025  RH  044%=      5-min Rain = 0
KGU1 141608Z 21009KT 09/M02 A3023 RMK A01 T00941024  RH  044%=      5-min Rain = 0
KGU1 141609Z 22006KT 09/M02 A3023 RMK A01 T00941023  RH  044%=      5-min Rain = 0
KGU1 141610Z 21006KT 10/M02 A3023 RMK A01 T00961022  RH  044%=      5-min Rain = 0
KGU1 141611Z 21005KT 10/M02 A3023 RMK A01 T00961023  RH  044%=      5-min Rain = 0
KGU1 141612Z 21009KT 10/M02 A3023 RMK A01 T00971021  RH  044%=      5-min Rain = 0
KGU1 141613Z 21010KT 10/M02 A3023 RMK A01 T00961023  RH  043%=      5-min Rain = 0
KGU1 141614Z 21009KT 10/M02 A3023 RMK A01 T00951024  RH  043%=      5-min Rain = 0
KGU1 141615Z 21007KT 10/M02 A3023 RMK A01 T00951024  RH  044%=      5-min Rain = 0
KGU1 141616Z 23008KT 10/M02 A3023 RMK A01 T00951023  RH  044%=      5-min Rain = 0
KGU1 141617Z 21008KT 10/M02 A3023 RMK A01 T00961024  RH  043%=      5-min Rain = 0
KGU1 141618Z 21008KT 10/M02 A3023 RMK A01 T00961021  RH  044%=      5-min Rain = 0
KGU1 141619Z 21008KT 10/M02 A3023 RMK A01 T00971023  RH  043%=      5-min Rain = 0
KGU1 141620Z 22007KT 10/M02 A3023 RMK A01 T00961022  RH  044%=      5-min Rain = 0
KGU1 141621Z 22007KT 10/M02 A3023 RMK A01 T00981019  RH  044%=      5-min Rain = 0
KGU1 141622Z 21006KT 10/M02 A3023 RMK A01 T01001019  RH  044%=      5-min Rain = 0
KGU1 141623Z 22008KT 10/M02 A3023 RMK A01 T01001020  RH  043%=      5-min Rain = 0
KGU1 141624Z 22008KT 10/M02 A3023 RMK A01 T00981022  RH  043%=      5-min Rain = 0
KGU1 141625Z 21008KT 10/M02 A3023 RMK A01 T00961023  RH  044%=      5-min Rain = 0
KGU1 141626Z 23009KT 10/M02 A3023 RMK A01 T00951024  RH  044%=      5-min Rain = 0
KGU1 141627Z 22007KT 09/M02 A3023 RMK A01 T00941023  RH  044%=      5-min Rain = 0
KGU1 141628Z 22007KT 10/M02 A3023 RMK A01 T00971020  RH  044%=      5-min Rain = 0
KGU1 141629Z 21009KT 10/M02 A3023 RMK A01 T00981021  RH  043%=      5-min Rain = 0
KGU1 141630Z 21009KT 10/M02 A3023 RMK A01 T00951024  RH  043%=      5-min Rain = 0
KGU1 141631Z 21009KT 09/M03 A3023 RMK A01 T00941025  RH  043%=      5-min Rain = 0
KGU1 141632Z 21007KT 10/M02 A3023 RMK A01 T00951022  RH  044%=      5-min Rain = 0
KGU1 141633Z 21011KT 10/M02 A3023 RMK A01 T00951024  RH  043%=      5-min Rain = 0
KGU1 141634Z 22008KT 09/M03 A3023 RMK A01 T00941026  RH  043%=      5-min Rain = 0
KGU1 141635Z 22008KT 10/M02 A3023 RMK A01 T00951023  RH  044%=      5-min Rain = 0
KGU1 141636Z 20011KT 10/M02 A3023 RMK A01 T00951023  RH  044%=      5-min Rain = 0
KGU1 141637Z 20009KT 09/M02 A3023 RMK A01 T00941024  RH  044%=      5-min Rain = 0
KGU1 141638Z 20009KT 09/M03 A3023 RMK A01 T00921025  RH  044%=      5-min Rain = 0
KGU1 141639Z 20008KT 09/M02 A3023 RMK A01 T00931023  RH  045%=      5-min Rain = 0
KGU1 141640Z 20009KT 09/M02 A3023 RMK A01 T00941021  RH  045%=      5-min Rain = 0
KGU1 141641Z 20009KT 10/M02 A3023 RMK A01 T00951024  RH  044%=      5-min Rain = 0
KGU1 141642Z 19010KT 10/M02 A3023 RMK A01 T00951023  RH  044%=      5-min Rain = 0
KGU1 141643Z 20010KT 09/M02 A3023 RMK A01 T00941024  RH  044%=      5-min Rain = 0
KGU1 141644Z 20009KT 10/M02 A3023 RMK A01 T00951021  RH  044%=      5-min Rain = 0
KGU1 141645Z 20009KT 10/M02 A3023 RMK A01 T00961023  RH  044%=      5-min Rain = 0
KGU1 141646Z 20010KT 10/M02 A3023 RMK A01 T00951023  RH  044%=      5-min Rain = 0
KGU1 141647Z 21009KT 10/M02 A3023 RMK A01 T00951024  RH  044%=      5-min Rain = 0
KGU1 141648Z 21009KT 10/M02 A3023 RMK A01 T00951022  RH  044%=      5-min Rain = 0
KGU1 141649Z 21011KT 10/M02 A3023 RMK A01 T00951023  RH  044%=      5-min Rain = 0
KGU1 141650Z 21012KT 10/M02 A3023 RMK A01 T00951024  RH  043%=      5-min Rain = 0
KGU1 141651Z 21012KT 09/M03 A3023 RMK A01 T00941025  RH  043%=      5-min Rain = 0
KGU1 141652Z 20009KT 09/M02 A3023 RMK A01 T00941023  RH  044%=      5-min Rain = 0
KGU1 141653Z 21011KT 10/M02 A3023 RMK A01 T00961023  RH  044%=      5-min Rain = 0
KGU1 141654Z 22010KT 10/M03 A3023 RMK A01 T00951025  RH  043%=      5-min Rain = 0
KGU1 141655Z 21010KT 10/M02 A3023 RMK A01 T00951024  RH  044%=      5-min Rain = 0
KGU1 141656Z 21008KT 10/M02 A3023 RMK A01 T00961023  RH  043%=      5-min Rain = 0
KGU1 141657Z 21008KT 10/M02 A3023 RMK A01 T00981021  RH  044%=      5-min Rain = 0
KGU1 141658Z 21011KT 10/M02 A3023 RMK A01 T00991023  RH  043%=      5-min Rain = 0
KGU1 141659Z 20010KT 10/M02 A3023 RMK A01 T00981023  RH  043%=      5-min Rain = 0
KGU1 141700Z 21009KT 10/M02 A3023 RMK A01 T00971024  RH  043%=      5-min Rain = 0
KGU1 141701Z 24006KT 10/M02 A3023 RMK A01 T00971022  RH  044%=      5-min Rain = 0
KGU1 141702Z 23007KT 10/M02 A3023 RMK A01 T00991022  RH  043%=      5-min Rain = 0
KGU1 141703Z 25008KT 10/M02 A3023 RMK A01 T00991024  RH  042%=      5-min Rain = 0
KGU1 141704Z 24009KT 10/M02 A3023 RMK A01 T00991024  RH  042%=      5-min Rain = 0
KGU1 141705Z 24010KT 10/M02 A3023 RMK A01 T00981024  RH  043%=      5-min Rain = 0
KGU1 141706Z 21008KT 10/M02 A3023 RMK A01 T01001022  RH  043%=      5-min Rain = 0
KGU1 141707Z 20008KT 10/M02 A3023 RMK A01 T01001023  RH  042%=      5-min Rain = 0
KGU1 141708Z 20007KT 10/M02 A3023 RMK A01 T01001024  RH  042%=      5-min Rain = 0
KGU1 141709Z 24008KT 10/M02 A3023 RMK A01 T01011021  RH  043%=      5-min Rain = 0
KGU1 141710Z 23006KT 10/M02 A3023 RMK A01 T01021022  RH  042%=      5-min Rain = 0
KGU1 141711Z 24003KT 10/M03 A3023 RMK A01 T01011025  RH  042%=      5-min Rain = 0
KGU1 141712Z 23006KT 10/M02 A3023 RMK A01 T01021021  RH  042%=      5-min Rain = 0
KGU1 141713Z 21009KT 11/M02 A3023 RMK A01 T01051019  RH  042%=      5-min Rain = 0
KGU1 141714Z 22008KT 11/M02 A3023 RMK A01 T01051022  RH  042%=      5-min Rain = 0
KGU1 141715Z 22008KT 10/M02 A3023 RMK A01 T01041020  RH  042%=      5-min Rain = 0
KGU1 141716Z 22008KT 11/M02 A3023 RMK A01 T01061020  RH  042%=      5-min Rain = 0
KGU1 141717Z 21009KT 11/M02 A3023 RMK A01 T01051022  RH  042%=      5-min Rain = 0
KGU1 141718Z 20009KT 10/M02 A3023 RMK A01 T01041022  RH  042%=      5-min Rain = 0
KGU1 141719Z 21010KT 10/M02 A3023 RMK A01 T01031021  RH  042%=      5-min Rain = 0
KGU1 141720Z 21011KT 10/M02 A3023 RMK A01 T01031022  RH  042%=      5-min Rain = 0
KGU1 141721Z 21010KT 10/M02 A3023 RMK A01 T01021023  RH  042%=      5-min Rain = 0
KGU1 141722Z 22010KT 10/M02 A3023 RMK A01 T01021022  RH  042%=      5-min Rain = 0
KGU1 141723Z 21009KT 10/M02 A3023 RMK A01 T01021021  RH  042%=      5-min Rain = 0
KGU1 141724Z 22009KT 10/M02 A3023 RMK A01 T01031022  RH  042%=      5-min Rain = 0
KGU1 141725Z 22009KT 10/M02 A3023 RMK A01 T01021023  RH  042%=      5-min Rain = 0
KGU1 141726Z 21009KT 10/M02 A3023 RMK A01 T01021022  RH  042%=      5-min Rain = 0
KGU1 141727Z 21011KT 10/M02 A3023 RMK A01 T01021022  RH  042%=      5-min Rain = 0
KGU1 141728Z 23011KT 10/M02 A3023 RMK A01 T01021022  RH  042%=      5-min Rain = 0
KGU1 141729Z 24008KT 10/M02 A3023 RMK A01 T01011023  RH  042%=      5-min Rain = 0
KGU1 141730Z 23009KT 10/M02 A3023 RMK A01 T01021021  RH  042%=      5-min Rain = 0
KGU1 141731Z 21011KT 10/M02 A3023 RMK A01 T01031021  RH  042%=      5-min Rain = 0
KGU1 141732Z 22007G13KT 10/M02 A3023 RMK A01 T01031021  RH  042%=      5-min Rain = 0
KGU1 141733Z 23008KT 10/M02 A3023 RMK A01 T01041020  RH  042%=      5-min Rain = 0
KGU1 141734Z 23009KT 11/M02 A3023 RMK A01 T01061020  RH  042%=      5-min Rain = 0
KGU1 141735Z 22008KT 11/M02 A3023 RMK A01 T01061019  RH  042%=      5-min Rain = 0
KGU1 141736Z 22010KT 11/M02 A3023 RMK A01 T01071019  RH  042%=      5-min Rain = 0
KGU1 141737Z 22010KT 11/M02 A3023 RMK A01 T01071020  RH  041%=      5-min Rain = 0
KGU1 141738Z 20009KT 11/M02 A3023 RMK A01 T01051021  RH  042%=      5-min Rain = 0
KGU1 141739Z 21010KT 10/M02 A3023 RMK A01 T01041021  RH  042%=      5-min Rain = 0
KGU1 141740Z 22006KT 10/M02 A3023 RMK A01 T01041019  RH  042%=      5-min Rain = 0
KGU1 141741Z 23012KT 11/M02 A3023 RMK A01 T01061019  RH  042%=      5-min Rain = 0
KGU1 141742Z 23008KT 11/M02 A3023 RMK A01 T01051022  RH  041%=      5-min Rain = 0
KGU1 141743Z 24009KT 11/M02 A3023 RMK A01 T01051022  RH  041%=      5-min Rain = 0
KGU1 141744Z 23008KT 11/M02 A3023 RMK A01 T01051021  RH  042%=      5-min Rain = 0
KGU1 141745Z 21009KT 11/M02 A3023 RMK A01 T01061022  RH  041%=      5-min Rain = 0
KGU1 141746Z 22007KT 11/M02 A3023 RMK A01 T01071021  RH  041%=      5-min Rain = 0
KGU1 141747Z 22005KT 11/M02 A3023 RMK A01 T01091019  RH  041%=      5-min Rain = 0
KGU1 141748Z 22007KT 11/M02 A3023 RMK A01 T01101021  RH  040%=      5-min Rain = 0
KGU1 141749Z 22007KT 11/M02 A3023 RMK A01 T01111019  RH  041%=      5-min Rain = 0
KGU1 141750Z 21007KT 11/M02 A3023 RMK A01 T01091022  RH  040%=      5-min Rain = 0
KGU1 141751Z 21007KT 11/M02 A3023 RMK A01 T01071020  RH  041%=      5-min Rain = 0
KGU1 141752Z 22005KT 11/M02 A3023 RMK A01 T01101017  RH  042%=      5-min Rain = 0
KGU1 141753Z 22004KT 11/M02 A3023 RMK A01 T01121017  RH  041%=      5-min Rain = 0
KGU1 141754Z 23007KT 11/M02 A3023 RMK A01 T01121019  RH  040%=      5-min Rain = 0
KGU1 141755Z 22007KT 11/M02 A3023 RMK A01 T01121020  RH  040%=      5-min Rain = 0
KGU1 141756Z 19007KT 11/M02 A3023 RMK A01 T01131018  RH  040%=      5-min Rain = 0
KGU1 141757Z 22007KT 11/M02 A3022 RMK A01 T01141018  RH  040%=      5-min Rain = 0
KGU1 141758Z 22007KT 11/M02 A3023 RMK A01 T01121021  RH  040%=      5-min Rain = 0
KGU1 141759Z 21007KT 11/M02 A3023 RMK A01 T01111018  RH  041%=      5-min Rain = 0
KGU1 141800Z 21009KT 11/M02 A3023 RMK A01 T01131020  RH  040%=      5-min Rain = 0
KGU1 141801Z 20008KT 11/M02 A3022 RMK A01 T01141022  RH  039%=      5-min Rain = 0
KGU1 141802Z 21009KT 11/M02 A3022 RMK A01 T01141021  RH  039%=      5-min Rain = 0
KGU1 141803Z 21008KT 11/M02 A3022 RMK A01 T01141023  RH  039%=      5-min Rain = 0
KGU1 141804Z 21007KT 11/M02 A3022 RMK A01 T01121023  RH  039%=      5-min Rain = 0
KGU1 141805Z 19006KT 11/M02 A3022 RMK A01 T01121021  RH  039%=      5-min Rain = 0
KGU1 141806Z 21005KT 11/M02 A3022 RMK A01 T01141018  RH  040%=      5-min Rain = 0
KGU1 141807Z 21007KT 12/M02 A3022 RMK A01 T01161022  RH  039%=      5-min Rain = 0
KGU1 141808Z 21008KT 11/M02 A3022 RMK A01 T01141023  RH  039%=      5-min Rain = 0
KGU1 141809Z 20006KT 11/M02 A3022 RMK A01 T01141022  RH  039%=      5-min Rain = 0
KGU1 141810Z 20007KT 12/M02 A3022 RMK A01 T01171019  RH  039%=      5-min Rain = 0
KGU1 141811Z 21005KT 12/M02 A3022 RMK A01 T01161024  RH  038%=      5-min Rain = 0
KGU1 141812Z 19005KT 12/M02 A3022 RMK A01 T01161022  RH  038%=      5-min Rain = 0
KGU1 141813Z 19006KT 12/M02 A3022 RMK A01 T01171021  RH  038%=      5-min Rain = 0
KGU1 141814Z 20006KT 12/M02 A3022 RMK A01 T01151023  RH  038%=      5-min Rain = 0
KGU1 141815Z 22005KT 11/M02 A3022 RMK A01 T01141022  RH  039%=      5-min Rain = 0
KGU1 141816Z 22003KT 12/M02 A3022 RMK A01 T01171020  RH  039%=      5-min Rain = 0
KGU1 141817Z 23002KT 12/M02 A3022 RMK A01 T01181021  RH  038%=      5-min Rain = 0
KGU1 141818Z 17003KT 12/M02 A3022 RMK A01 T01211018  RH  038%=      5-min Rain = 0
KGU1 141819Z 18005KT 12/M02 A3022 RMK A01 T01241018  RH  038%=      5-min Rain = 0
KGU1 141820Z 18005KT 13/M02 A3022 RMK A01 T01261018  RH  037%=      5-min Rain = 0
KGU1 141821Z 17005KT 13/M02 A3022 RMK A01 T01251020  RH  037%=      5-min Rain = 0
KGU1 141822Z 19005KT 12/M02 A3022 RMK A01 T01221021  RH  037%=      5-min Rain = 0
KGU1 141823Z 21005KT 12/M02 A3022 RMK A01 T01241016  RH  038%=      5-min Rain = 0
KGU1 141824Z 21006KT 12/M02 A3022 RMK A01 T01241023  RH  036%=      5-min Rain = 0
KGU1 141825Z 24006KT 12/M02 A3022 RMK A01 T01221022  RH  037%=      5-min Rain = 0
KGU1 141826Z 24006KT 12/M02 A3022 RMK A01 T01241019  RH  037%=      5-min Rain = 0
KGU1 141827Z 26006KT 12/M02 A3021 RMK A01 T01231022  RH  037%=      5-min Rain = 0
KGU1 141828Z 25005KT 12/M02 A3021 RMK A01 T01231019  RH  037%=      5-min Rain = 0
KGU1 141829Z 20008KT 13/M02 A3021 RMK A01 T01251019  RH  037%=      5-min Rain = 0
KGU1 141830Z 20009KT 12/M02 A3021 RMK A01 T01241019  RH  037%=      5-min Rain = 0
KGU1 141831Z 21006KT 12/M02 A3021 RMK A01 T01231023  RH  036%=      5-min Rain = 0
KGU1 141832Z 19006KT 12/M02 A3021 RMK A01 T01221021  RH  037%=      5-min Rain = 0
KGU1 141833Z 20007KT 12/M02 A3021 RMK A01 T01211021  RH  037%=      5-min Rain = 0
KGU1 141834Z 19006KT 12/M02 A3021 RMK A01 T01221020  RH  038%=      5-min Rain = 0
KGU1 141835Z 18008KT 12/M02 A3021 RMK A01 T01211022  RH  037%=      5-min Rain = 0
KGU1 141836Z 18006KT 12/M02 A3021 RMK A01 T01191023  RH  037%=      5-min Rain = 0
KGU1 141837Z 20006KT 12/M02 A3021 RMK A01 T01181022  RH  038%=      5-min Rain = 0
KGU1 141838Z 18006KT 12/M02 A3021 RMK A01 T01211018  RH  038%=      5-min Rain = 0
KGU1 141839Z 17007KT 12/M02 A3021 RMK A01 T01201023  RH  037%=      5-min Rain = 0
KGU1 141840Z 17007KT 12/M02 A3021 RMK A01 T01181020  RH  038%=      5-min Rain = 0
KGU1 141841Z 16006KT 12/M02 A3021 RMK A01 T01201018  RH  039%=      5-min Rain = 0
KGU1 141842Z 18009KT 12/M02 A3021 RMK A01 T01241015  RH  039%=      5-min Rain = 0
KGU1 141843Z 18007KT 12/M02 A3021 RMK A01 T01231020  RH  037%=      5-min Rain = 0
KGU1 141844Z 17005KT 12/M02 A3021 RMK A01 T01231020  RH  037%=      5-min Rain = 0
KGU1 141845Z 16007KT 12/M02 A3021 RMK A01 T01241017  RH  038%=      5-min Rain = 0
KGU1 141846Z 18009KT 13/M02 A3021 RMK A01 T01251021  RH  036%=      5-min Rain = 0
KGU1 141847Z 19009KT 12/M02 A3021 RMK A01 T01231021  RH  037%=      5-min Rain = 0
KGU1 141848Z 19010KT 12/M02 A3021 RMK A01 T01211023  RH  037%=      5-min Rain = 0
KGU1 141849Z 18009KT 12/M02 A3021 RMK A01 T01201022  RH  038%=      5-min Rain = 0
KGU1 141850Z 18009KT 12/M02 A3021 RMK A01 T01201019  RH  038%=      5-min Rain = 0
KGU1 141851Z 18006KT 12/M02 A302 RMK A01 T01181022  RH  038%=      5-min Rain = 0
KGU1 141852Z 17006KT 12/M02 A302 RMK A01 T01191016  RH  039%=      5-min Rain = 0
KGU1 141853Z 16006KT 12/M01 A302 RMK A01 T01231014  RH  039%=      5-min Rain = 0
KGU1 141854Z 17008KT 13/M01 A302 RMK A01 T01271012  RH  038%=      5-min Rain = 0
KGU1 141855Z 17007KT 13/M02 A302 RMK A01 T01261016  RH  038%=      5-min Rain = 0
KGU1 141856Z 18009KT 12/M02 A302 RMK A01 T01241017  RH  038%=      5-min Rain = 0
KGU1 141857Z 19008KT 12/M02 A302 RMK A01 T01231019  RH  037%=      5-min Rain = 0
KGU1 141858Z 18007KT 12/M02 A302 RMK A01 T01201021  RH  038%=      5-min Rain = 0
KGU1 141859Z 19009KT 12/M02 A302 RMK A01 T01201017  RH  039%=      5-min Rain = 0
KGU1 141900Z 19009KT 12/M02 A302 RMK A01 T01191021  RH  038%=      5-min Rain = 0
KGU1 141901Z 18007KT 12/M02 A302 RMK A01 T01181021  RH  038%=      5-min Rain = 0
KGU1 141902Z 16007KT 12/M02 A302 RMK A01 T01201017  RH  039%=      5-min Rain = 0
KGU1 141903Z 16007KT 12/M02 A302 RMK A01 T01211016  RH  039%=      5-min Rain = 0
KGU1 141904Z 17007KT 12/M02 A302 RMK A01 T01211017  RH  039%=      5-min Rain = 0
KGU1 141905Z 19007KT 12/M02 A302 RMK A01 T01211016  RH  039%=      5-min Rain = 0
KGU1 141906Z 18009KT 12/M02 A302 RMK A01 T01201018  RH  038%=      5-min Rain = 0
KGU1 141907Z 17009KT 12/M02 A302 RMK A01 T01231015  RH  038%=      5-min Rain = 0
KGU1 141908Z 16007KT 12/M02 A302 RMK A01 T01221018  RH  038%=      5-min Rain = 0
KGU1 141909Z 17007KT 12/M01 A302 RMK A01 T01241013  RH  039%=      5-min Rain = 0
KGU1 141910Z 17008KT 13/M01 A302 RMK A01 T01281012  RH  038%=      5-min Rain = 0
KGU1 141911Z 17007KT 13/M02 A3019 RMK A01 T01271016  RH  037%=      5-min Rain = 0
KGU1 141912Z 19006KT 13/M01 A3019 RMK A01 T01261014  RH  038%=      5-min Rain = 0
KGU1 141913Z 21009KT 13/M02 A3019 RMK A01 T01271016  RH  037%=      5-min Rain = 0
KGU1 141914Z 21007KT 13/M02 A3019 RMK A01 T01251017  RH  038%=      5-min Rain = 0
KGU1 141915Z 22007KT 13/M02 A3019 RMK A01 T01251016  RH  038%=      5-min Rain = 0
KGU1 141916Z 23004KT 13/M02 A3019 RMK A01 T01281015  RH  037%=      5-min Rain = 0
KGU1 141917Z 20006KT 13/M01 A3019 RMK A01 T01291014  RH  037%=      5-min Rain = 0
KGU1 141918Z 20008KT 13/M02 A3019 RMK A01 T01301015  RH  037%=      5-min Rain = 0
KGU1 141919Z 18008KT 13/M02 A3019 RMK A01 T01291018  RH  036%=      5-min Rain = 0
KGU1 141920Z 17008KT 13/M02 A3019 RMK A01 T01281019  RH  036%=      5-min Rain = 0
KGU1 141921Z 18009KT 13/M02 A3019 RMK A01 T01251018  RH  037%=      5-min Rain = 0
KGU1 141922Z 19008KT 13/M02 A3018 RMK A01 T01261016  RH  038%=      5-min Rain = 0
KGU1 141923Z 22007KT 13/M02 A3018 RMK A01 T01271018  RH  037%=      5-min Rain = 0
KGU1 141924Z 23006KT 13/M02 A3018 RMK A01 T01251019  RH  037%=      5-min Rain = 0
KGU1 141925Z 21005KT 13/M02 A3018 RMK A01 T01281015  RH  037%=      5-min Rain = 0
KGU1 141926Z 20007KT 13/M02 A3018 RMK A01 T01311017  RH  036%=      5-min Rain = 0
KGU1 141927Z 20008KT 13/M02 A3018 RMK A01 T01321019  RH  036%=      5-min Rain = 0
KGU1 141928Z 19009KT 13/M02 A3018 RMK A01 T01281022  RH  036%=      5-min Rain = 0
KGU1 141929Z 19006KT 13/M02 A3018 RMK A01 T01271021  RH  036%=      5-min Rain = 0
KGU1 141930Z 19008KT 13/M02 A3018 RMK A01 T01271024  RH  035%=      5-min Rain = 0
KGU1 141931Z 20009KT 13/M02 A3018 RMK A01 T01281019  RH  037%=      5-min Rain = 0
KGU1 141932Z 20008KT 13/M02 A3018 RMK A01 T01301017  RH  036%=      5-min Rain = 0
KGU1 141933Z 18009KT 13/M02 A3018 RMK A01 T01301017  RH  036%=      5-min Rain = 0
KGU1 141934Z 19008KT 13/M02 A3018 RMK A01 T01281019  RH  036%=      5-min Rain = 0
KGU1 141935Z 19009KT 13/M02 A3018 RMK A01 T01271016  RH  037%=      5-min Rain = 0
KGU1 141936Z 20010KT 13/M02 A3018 RMK A01 T01291017  RH  037%=      5-min Rain = 0
KGU1 141937Z 20008KT 13/M02 A3018 RMK A01 T01281017  RH  037%=      5-min Rain = 0
KGU1 141938Z 19008KT 13/M02 A3018 RMK A01 T01281019  RH  036%=      5-min Rain = 0
KGU1 141939Z 19007KT 13/M02 A3018 RMK A01 T01261019  RH  037%=      5-min Rain = 0
KGU1 141940Z 19007KT 13/M02 A3018 RMK A01 T01261016  RH  038%=      5-min Rain = 0
KGU1 141941Z 20009KT 13/M02 A3018 RMK A01 T01271017  RH  037%=      5-min Rain = 0
KGU1 141942Z 20007KT 13/M02 A3017 RMK A01 T01281017  RH  037%=      5-min Rain = 0
KGU1 141943Z 19007KT 13/M02 A3017 RMK A01 T01271017  RH  037%=      5-min Rain = 0
KGU1 141944Z 19006KT 13/M01 A3017 RMK A01 T01291013  RH  038%=      5-min Rain = 0
KGU1 141945Z 19006KT 13/M01 A3017 RMK A01 T01341011  RH  037%=      5-min Rain = 0
KGU1 141946Z 22009KT 14/M01 A3017 RMK A01 T01351014  RH  036%=      5-min Rain = 0
KGU1 141947Z 22007KT 13/M02 A3017 RMK A01 T01341015  RH  036%=      5-min Rain = 0
KGU1 141948Z 22003KT 13/M02 A3017 RMK A01 T01311017  RH  036%=      5-min Rain = 0
KGU1 141949Z 21008KT 13/M02 A3017 RMK A01 T01321015  RH  037%=      5-min Rain = 0
KGU1 141950Z 21009KT 13/M02 A3017 RMK A01 T01321018  RH  036%=      5-min Rain = 0
KGU1 141951Z 20007KT 13/M02 A3017 RMK A01 T01311015  RH  037%=      5-min Rain = 0
KGU1 141952Z 22008KT 13/M02 A3017 RMK A01 T01331015  RH  036%=      5-min Rain = 0
KGU1 141953Z 23005KT 13/M02 A3017 RMK A01 T01311018  RH  036%=      5-min Rain = 0
KGU1 141954Z 21006KT 13/M02 A3017 RMK A01 T01311017  RH  036%=      5-min Rain = 0
KGU1 141955Z 20008G13KT 13/M02 A3017 RMK A01 T01301021  RH  035%=      5-min Rain = 0
KGU1 141956Z 21008KT 13/M02 A3017 RMK A01 T01311019  RH  036%=      5-min Rain = 0
KGU1 141957Z 20008KT 13/M02 A3017 RMK A01 T01291020  RH  036%=      5-min Rain = 0
KGU1 141958Z 21007KT 13/M02 A3017 RMK A01 T01301020  RH  035%=      5-min Rain = 0
KGU1 141959Z 20007KT 13/M02 A3016 RMK A01 T01321018  RH  036%=      5-min Rain = 0
KGU1 142000Z 21006KT 13/M02 A3016 RMK A01 T01321018  RH  036%=      5-min Rain = 0
KGU1 142001Z 21006KT 13/M02 A3016 RMK A01 T01311016  RH  036%=      5-min Rain = 0
KGU1 142002Z 21008KT 13/M02 A3016 RMK A01 T01311020  RH  035%=      5-min Rain = 0
KGU1 142003Z 20007KT 13/M02 A3016 RMK A01 T01321023  RH  034%=      5-min Rain = 0
KGU1 142004Z 21007KT 13/M02 A3016 RMK A01 T01331018  RH  035%=      5-min Rain = 0
KGU1 142005Z 22009KT 13/M02 A3016 RMK A01 T01331015  RH  036%=      5-min Rain = 0
KGU1 142006Z 21009KT 13/M02 A3016 RMK A01 T01321016  RH  036%=      5-min Rain = 0
KGU1 142007Z 22008KT 13/M02 A3016 RMK A01 T01311017  RH  036%=      5-min Rain = 0
KGU1 142008Z 22005KT 13/M02 A3016 RMK A01 T01291019  RH  036%=      5-min Rain = 0
KGU1 142009Z 18007G13KT 13/M02 A3016 RMK A01 T01311017  RH  036%=      5-min Rain = 0
KGU1 142010Z 18008KT 13/M02 A3016 RMK A01 T01311021  RH  035%=      5-min Rain = 0
KGU1 142011Z 17007KT 13/M02 A3016 RMK A01 T01291024  RH  035%=      5-min Rain = 0
KGU1 142012Z 18007KT 13/M02 A3016 RMK A01 T01311020  RH  035%=      5-min Rain = 0
KGU1 142013Z 18005KT 13/M02 A3016 RMK A01 T01331019  RH  035%=      5-min Rain = 0
KGU1 142014Z 21009KT 14/M02 A3016 RMK A01 T01351017  RH  035%=      5-min Rain = 0
KGU1 142015Z 21009KT 13/M02 A3016 RMK A01 T01341022  RH  034%=      5-min Rain = 0
KGU1 142016Z 21010KT 13/M02 A3016 RMK A01 T01321021  RH  035%=      5-min Rain = 0
KGU1 142017Z 21009KT 13/M02 A3016 RMK A01 T01321021  RH  035%=      5-min Rain = 0
KGU1 142018Z 22008KT 13/M02 A3015 RMK A01 T01321021  RH  035%=      5-min Rain = 0
KGU1 142019Z 22006KT 13/M02 A3015 RMK A01 T01301021  RH  035%=      5-min Rain = 0
KGU1 142020Z 20006KT 13/M02 A3015 RMK A01 T01301018  RH  036%=      5-min Rain = 0
KGU1 142021Z 21008KT 13/M02 A3015 RMK A01 T01321018  RH  035%=      5-min Rain = 0
KGU1 142022Z 22007KT 13/M02 A3015 RMK A01 T01331019  RH  035%=      5-min Rain = 0
KGU1 142023Z 21005KT 13/M02 A3015 RMK A01 T01311019  RH  035%=      5-min Rain = 0
KGU1 142024Z 19004KT 13/M02 A3015 RMK A01 T01321017  RH  036%=      5-min Rain = 0
KGU1 142025Z 20004KT 13/M02 A3015 RMK A01 T01321020  RH  035%=      5-min Rain = 0
KGU1 142026Z 19007KT 13/M02 A3015 RMK A01 T01321016  RH  036%=      5-min Rain = 0
KGU1 142027Z 19007KT 13/M02 A3015 RMK A01 T01341017  RH  035%=      5-min Rain = 0
KGU1 142028Z 18009KT 13/M02 A3015 RMK A01 T01341019  RH  035%=      5-min Rain = 0
KGU1 142029Z 18009KT 13/M02 A3015 RMK A01 T01341018  RH  035%=      5-min Rain = 0
KGU1 142030Z 18006KT 14/M02 A3015 RMK A01 T01361017  RH  035%=      5-min Rain = 0
KGU1 142031Z 17009KT 14/M01 A3015 RMK A01 T01371010  RH  037%=      5-min Rain = 0
KGU1 142032Z 15008KT 13/00 A3015 RMK A01 T01340004  RH  041%=      5-min Rain = 0
KGU1 142033Z 18006KT 13/01 A3015 RMK A01 T01340005  RH  042%=      5-min Rain = 0
KGU1 142034Z 20004KT 13/M01 A3015 RMK A01 T01341012  RH  037%=      5-min Rain = 0
KGU1 142035Z 16003KT 14/M01 A3015 RMK A01 T01371010  RH  037%=      5-min Rain = 0
KGU1 142036Z 17005KT 14/00 A3015 RMK A01 T01390004  RH  040%=      5-min Rain = 0
KGU1 142037Z 15005KT 13/00 A3015 RMK A01 T01340003  RH  041%=      5-min Rain = 0
KGU1 142038Z 17006KT 13/01 A3014 RMK A01 T01290007  RH  044%=      5-min Rain = 0
KGU1 142039Z 15006KT 13/01 A3014 RMK A01 T01260007  RH  045%=      5-min Rain = 0
KGU1 142040Z 15006KT 13/01 A3014 RMK A01 T01250008  RH  045%=      5-min Rain = 0
KGU1 142041Z 13006KT 13/01 A3014 RMK A01 T01260009  RH  045%=      5-min Rain = 0
KGU1 142042Z 17006KT 13/01 A3014 RMK A01 T01280010  RH  045%=      5-min Rain = 0
KGU1 142043Z 17005KT 13/01 A3014 RMK A01 T01270008  RH  045%=      5-min Rain = 0
KGU1 142044Z 17003KT 13/01 A3014 RMK A01 T01270008  RH  045%=      5-min Rain = 0
KGU1 142045Z 16004KT 13/01 A3014 RMK A01 T01280010  RH  045%=      5-min Rain = 0
KGU1 142046Z 16005KT 13/01 A3014 RMK A01 T01300010  RH  045%=      5-min Rain = 0
KGU1 142047Z 17005KT 13/01 A3014 RMK A01 T01330012  RH  044%=      5-min Rain = 0
KGU1 142048Z 16004KT 13/01 A3014 RMK A01 T01330009  RH  043%=      5-min Rain = 0
KGU1 142049Z 17003KT 13/01 A3014 RMK A01 T01320009  RH  044%=      5-min Rain = 0
KGU1 142050Z 20003KT 13/01 A3014 RMK A01 T01330006  RH  042%=      5-min Rain = 0
KGU1 142051Z 16006KT 14/00 A3014 RMK A01 T01360001  RH  040%=      5-min Rain = 0
KGU1 142052Z 16006KT 13/01 A3014 RMK A01 T01340008  RH  042%=      5-min Rain = 0
KGU1 142053Z 14005KT 13/01 A3014 RMK A01 T01340010  RH  044%=      5-min Rain = 0
KGU1 142054Z 14004KT 13/01 A3014 RMK A01 T01330007  RH  043%=      5-min Rain = 0
KGU1 142055Z 16004KT 13/01 A3014 RMK A01 T01320009  RH  044%=      5-min Rain = 0
KGU1 142056Z 14006KT 13/01 A3014 RMK A01 T01320008  RH  043%=      5-min Rain = 0
KGU1 142057Z 15006KT 13/01 A3014 RMK A01 T01300009  RH  044%=      5-min Rain = 0
KGU1 142058Z 16005KT 13/01 A3014 RMK A01 T01280007  RH  044%=      5-min Rain = 0
KGU1 142059Z 17003KT 13/01 A3014 RMK A01 T01270007  RH  045%=      5-min Rain = 0
KGU1 142100Z 14005KT 13/01 A3014 RMK A01 T01270007  RH  044%=      5-min Rain = 0
KGU1 142101Z 15005KT 13/01 A3014 RMK A01 T01280008  RH  044%=      5-min Rain = 0
KGU1 142102Z 13005KT 13/01 A3014 RMK A01 T01290009  RH  045%=      5-min Rain = 0
KGU1 142103Z 14006KT 13/01 A3014 RMK A01 T01280009  RH  045%=      5-min Rain = 0
KGU1 142104Z 17003KT 13/01 A3014 RMK A01 T01260009  RH  045%=      5-min Rain = 0
KGU1 142105Z 15001KT 13/01 A3014 RMK A01 T01270011  RH  046%=      5-min Rain = 0
KGU1 142106Z 14004KT 13/01 A3014 RMK A01 T01290010  RH  045%=      5-min Rain = 0
KGU1 142107Z 16001KT 13/01 A3014 RMK A01 T01290009  RH  045%=      5-min Rain = 0
KGU1 142108Z 16003KT 13/01 A3014 RMK A01 T01310011  RH  044%=      5-min Rain = 0
KGU1 142109Z 17003KT 13/01 A3014 RMK A01 T01320011  RH  044%=      5-min Rain = 0
KGU1 142110Z 19003KT 14/01 A3014 RMK A01 T01350010  RH  043%=      5-min Rain = 0
KGU1 142111Z 20005G16KT 14/01 A3014 RMK A01 T01380010  RH  042%=      5-min Rain = 0
KGU1 142112Z 16011G20KT 14/01 A3014 RMK A01 T01380008  RH  042%=      5-min Rain = 0
KGU1 142113Z 15006KT 13/01 A3014 RMK A01 T01330009  RH  043%=      5-min Rain = 0
KGU1 142114Z 15006KT 13/01 A3014 RMK A01 T01320013  RH  045%=      5-min Rain = 0
KGU1 142115Z 14005KT 13/01 A3014 RMK A01 T01300010  RH  045%=      5-min Rain = 0
KGU1 142116Z 15005KT 13/01 A3014 RMK A01 T01290012  RH  045%=      5-min Rain = 0
KGU1 142117Z 15002KT 13/01 A3014 RMK A01 T01300012  RH  045%=      5-min Rain = 0
KGU1 142118Z 19003KT 13/01 A3014 RMK A01 T01330011  RH  044%=      5-min Rain = 0
KGU1 142119Z 17007KT 14/00 A3013 RMK A01 T01380003  RH  040%=      5-min Rain = 0
KGU1 142120Z 15007KT 14/01 A3014 RMK A01 T01360010  RH  043%=      5-min Rain = 0
KGU1 142121Z 17009KT 13/01 A3013 RMK A01 T01310006  RH  043%=      5-min Rain = 0
KGU1 142122Z 19011KT 13/M01 A3013 RMK A01 T01341012  RH  037%=      5-min Rain = 0
KGU1 142123Z 15007KT 14/M01 A3013 RMK A01 T01371005  RH  038%=      5-min Rain = 0
KGU1 142124Z 13006KT 13/01 A3013 RMK A01 T01330007  RH  043%=      5-min Rain = 0
KGU1 142125Z 14006KT 13/01 A3013 RMK A01 T01300010  RH  045%=      5-min Rain = 0
KGU1 142126Z 15005KT 13/01 A3013 RMK A01 T01280012  RH  046%=      5-min Rain = 0
KGU1 142127Z 15003KT 13/01 A3013 RMK A01 T01280012  RH  046%=      5-min Rain = 0
KGU1 142128Z 19006KT 13/01 A3013 RMK A01 T01300011  RH  045%=      5-min Rain = 0
KGU1 142129Z 13006G11KT 13/01 A3013 RMK A01 T01330011  RH  044%=      5-min Rain = 0
KGU1 142130Z 16004KT 13/01 A3013 RMK A01 T01320011  RH  044%=      5-min Rain = 0
KGU1 142131Z 15004KT 13/01 A3013 RMK A01 T01320012  RH  045%=      5-min Rain = 0
KGU1 142132Z 15005KT 13/01 A3013 RMK A01 T01320013  RH  045%=      5-min Rain = 0
KGU1 142133Z 13006KT 13/01 A3013 RMK A01 T01330013  RH  045%=      5-min Rain = 0
KGU1 142134Z 14006KT 13/01 A3013 RMK A01 T01300012  RH  045%=      5-min Rain = 0
KGU1 142135Z 15004KT 13/01 A3013 RMK A01 T01280007  RH  044%=      5-min Rain = 0
KGU1 142136Z 16005KT 13/01 A3013 RMK A01 T01280009  RH  045%=      5-min Rain = 0
KGU1 142137Z 15006KT 13/01 A3013 RMK A01 T01270013  RH  046%=      5-min Rain = 0
KGU1 142138Z 16006KT 13/01 A3013 RMK A01 T01260012  RH  046%=      5-min Rain = 0
KGU1 142139Z 15006KT 13/02 A3013 RMK A01 T01280015  RH  047%=      5-min Rain = 0
KGU1 142140Z 14006KT 13/01 A3013 RMK A01 T01270012  RH  046%=      5-min Rain = 0
KGU1 142141Z 12007KT 13/01 A3013 RMK A01 T01260013  RH  047%=      5-min Rain = 0
KGU1 142142Z 15005KT 13/01 A3013 RMK A01 T01250012  RH  047%=      5-min Rain = 0
KGU1 142143Z 14005KT 13/01 A3013 RMK A01 T01280014  RH  046%=      5-min Rain = 0
KGU1 142144Z 16005KT 13/01 A3013 RMK A01 T01300013  RH  046%=      5-min Rain = 0
KGU1 142145Z 16008KT 13/01 A3013 RMK A01 T01320008  RH  043%=      5-min Rain = 0
KGU1 142146Z 16004KT 13/01 A3013 RMK A01 T01340007  RH  042%=      5-min Rain = 0
KGU1 142147Z 20003KT 13/00 A3013 RMK A01 T01340004  RH  041%=      5-min Rain = 0
KGU1 142148Z 16005KT 14/01 A3013 RMK A01 T01350007  RH  042%=      5-min Rain = 0
KGU1 142149Z 14005KT 14/01 A3013 RMK A01 T01360012  RH  044%=      5-min Rain = 0
KGU1 142150Z 17006KT 14/01 A3013 RMK A01 T01360012  RH  043%=      5-min Rain = 0
KGU1 142151Z 18007G12KT 14/M00 A3013 RMK A01 T01391004  RH  038%=      5-min Rain = 0
KGU1 142152Z 15008KT 14/01 A3013 RMK A01 T01380009  RH  042%=      5-min Rain = 0
KGU1 142153Z 15004KT 14/01 A3013 RMK A01 T01370013  RH  044%=      5-min Rain = 0
KGU1 142154Z 15004KT 14/01 A3013 RMK A01 T01360014  RH  044%=      5-min Rain = 0
KGU1 142155Z 16004KT 13/01 A3013 RMK A01 T01340012  RH  044%=      5-min Rain = 0
KGU1 142156Z 13007KT 14/02 A3012 RMK A01 T01350015  RH  045%=      5-min Rain = 0
KGU1 142157Z 13007KT 13/02 A3012 RMK A01 T01330015  RH  045%=      5-min Rain = 0
KGU1 142158Z 12007KT 13/02 A3012 RMK A01 T01290015  RH  046%=      5-min Rain = 0
KGU1 142159Z 12007KT 13/02 A3012 RMK A01 T01260016  RH  048%=      5-min Rain = 0
KGU1 142200Z 12006KT 12/02 A3012 RMK A01 T01240018  RH  049%=      5-min Rain = 0
KGU1 142201Z 11007KT 12/02 A3012 RMK A01 T01240017  RH  049%=      5-min Rain = 0
KGU1 142202Z 11006KT 12/02 A3013 RMK A01 T01210016  RH  049%=      5-min Rain = 0
KGU1 142203Z 11004KT 12/02 A3013 RMK A01 T01210017  RH  049%=      5-min Rain = 0
KGU1 142204Z 10006KT 12/02 A3013 RMK A01 T01220018  RH  050%=      5-min Rain = 0
KGU1 142205Z 10006KT 12/02 A3013 RMK A01 T01230017  RH  049%=      5-min Rain = 0
KGU1 142206Z 10005KT 12/02 A3013 RMK A01 T01200015  RH  049%=      5-min Rain = 0
KGU1 142207Z 11003KT 12/02 A3013 RMK A01 T01170016  RH  051%=      5-min Rain = 0
KGU1 142208Z 10005KT 12/02 A3013 RMK A01 T01190019  RH  051%=      5-min Rain = 0
KGU1 142209Z 10007KT 12/02 A3013 RMK A01 T01220020  RH  050%=      5-min Rain = 0
KGU1 142210Z 10007KT 12/02 A3013 RMK A01 T01210018  RH  050%=      5-min Rain = 0
KGU1 142211Z 10007KT 12/02 A3013 RMK A01 T01180017  RH  051%=      5-min Rain = 0
KGU1 142212Z 09006KT 12/02 A3013 RMK A01 T01160017  RH  051%=      5-min Rain = 0
KGU1 142213Z 10006KT 12/02 A3013 RMK A01 T01160018  RH  052%=      5-min Rain = 0
KGU1 142214Z 10007KT 12/02 A3013 RMK A01 T01170017  RH  051%=      5-min Rain = 0
KGU1 142215Z 10007KT 12/02 A3013 RMK A01 T01150016  RH  051%=      5-min Rain = 0
KGU1 142216Z 10006KT 11/02 A3013 RMK A01 T01140018  RH  053%=      5-min Rain = 0
KGU1 142217Z 12006KT 12/02 A3013 RMK A01 T01160018  RH  052%=      5-min Rain = 0
KGU1 142218Z 10005KT 12/02 A3013 RMK A01 T01150017  RH  052%=      5-min Rain = 0
KGU1 142219Z 10006KT 12/02 A3013 RMK A01 T01170019  RH  052%=      5-min Rain = 0
KGU1 142220Z 10006KT 12/02 A3013 RMK A01 T01170018  RH  051%=      5-min Rain = 0
KGU1 142221Z 10006KT 12/02 A3013 RMK A01 T01150016  RH  052%=      5-min Rain = 0
KGU1 142222Z 10006KT 11/02 A3012 RMK A01 T01130017  RH  052%=      5-min Rain = 0
KGU1 142223Z 09005KT 11/02 A3013 RMK A01 T01130017  RH  053%=      5-min Rain = 0
KGU1 142224Z 10004KT 12/02 A3012 RMK A01 T01160021  RH  053%=      5-min Rain = 0
KGU1 142225Z 13005KT 12/02 A3012 RMK A01 T01190019  RH  051%=      5-min Rain = 0
KGU1 142226Z 09005KT 12/02 A3013 RMK A01 T01180019  RH  051%=      5-min Rain = 0
KGU1 142227Z 11004KT 12/02 A3012 RMK A01 T01180018  RH  051%=      5-min Rain = 0
KGU1 142228Z 10004KT 12/02 A3012 RMK A01 T01180018  RH  051%=      5-min Rain = 0
KGU1 142229Z 10005KT 12/02 A3012 RMK A01 T01180017  RH  051%=      5-min Rain = 0
KGU1 142230Z 09004KT 12/02 A3013 RMK A01 T01160017  RH  051%=      5-min Rain = 0
KGU1 142231Z 08004KT 12/02 A3013 RMK A01 T01150018  RH  052%=      5-min Rain = 0
KGU1 142232Z 07004KT 12/02 A3013 RMK A01 T01150018  RH  052%=      5-min Rain = 0
KGU1 142233Z 06004KT 12/02 A3013 RMK A01 T01150017  RH  052%=      5-min Rain = 0
KGU1 142234Z 06003KT 12/02 A3013 RMK A01 T01150017  RH  052%=      5-min Rain = 0
KGU1 142235Z 09003KT 12/02 A3013 RMK A01 T01150018  RH  052%=      5-min Rain = 0
KGU1 142236Z 10005KT 12/02 A3013 RMK A01 T01160017  RH  051%=      5-min Rain = 0
KGU1 142237Z 08003KT 11/02 A3013 RMK A01 T01140017  RH  052%=      5-min Rain = 0
KGU1 142238Z 11004KT 11/02 A3013 RMK A01 T01140017  RH  052%=      5-min Rain = 0
KGU1 142239Z 11004KT 11/02 A3013 RMK A01 T01140018  RH  053%=      5-min Rain = 0
KGU1 142240Z 10004KT 11/02 A3013 RMK A01 T01140017  RH  052%=      5-min Rain = 0
KGU1 142241Z 10004KT 11/02 A3013 RMK A01 T01130017  RH  052%=      5-min Rain = 0
KGU1 142242Z 10003KT 11/02 A3013 RMK A01 T01120017  RH  053%=      5-min Rain = 0
KGU1 142243Z 08003KT 11/02 A3013 RMK A01 T01130018  RH  053%=      5-min Rain = 0
KGU1 142244Z 10004KT 11/02 A3013 RMK A01 T01130017  RH  053%=      5-min Rain = 0
KGU1 142245Z 12005KT 11/02 A3013 RMK A01 T01120018  RH  053%=      5-min Rain = 0
KGU1 142246Z 13005KT 11/02 A3013 RMK A01 T01120017  RH  053%=      5-min Rain = 0
KGU1 142247Z 12005KT 11/02 A3013 RMK A01 T01100017  RH  053%=      5-min Rain = 0
KGU1 142248Z 14004KT 11/02 A3013 RMK A01 T01110017  RH  053%=      5-min Rain = 0
KGU1 142249Z 12003KT 11/02 A3013 RMK A01 T01110017  RH  053%=      5-min Rain = 0
KGU1 142250Z 12003KT 11/02 A3013 RMK A01 T01100017  RH  053%=      5-min Rain = 0
KGU1 142251Z 12003KT 11/02 A3013 RMK A01 T01110017  RH  053%=      5-min Rain = 0
KGU1 142252Z 10002KT 11/02 A3013 RMK A01 T01110016  RH  053%=      5-min Rain = 0
KGU1 142253Z 12002KT 11/02 A3013 RMK A01 T01110017  RH  053%=      5-min Rain = 0
KGU1 142254Z 12003KT 11/02 A3013 RMK A01 T01130018  RH  053%=      5-min Rain = 0
KGU1 142255Z 14004KT 11/02 A3013 RMK A01 T01130017  RH  052%=      5-min Rain = 0
KGU1 142256Z 16002KT 11/02 A3013 RMK A01 T01120016  RH  053%=      5-min Rain = 0
KGU1 142257Z 17001KT 11/02 A3013 RMK A01 T01120017  RH  053%=      5-min Rain = 0
KGU1 142258Z 15002KT 11/02 A3013 RMK A01 T01130017  RH  053%=      5-min Rain = 0
KGU1 142259Z 13003KT 11/02 A3013 RMK A01 T01130017  RH  053%=      5-min Rain = 0
KGU1 142300Z 12002KT 11/02 A3013 RMK A01 T01120018  RH  053%=      5-min Rain = 0
KGU1 142301Z 14002KT 11/02 A3013 RMK A01 T01140018  RH  052%=      5-min Rain = 0
KGU1 142302Z 13003KT 12/02 A3013 RMK A01 T01150018  RH  052%=      5-min Rain = 0
KGU1 142303Z 11002KT 11/02 A3013 RMK A01 T01140018  RH  052%=      5-min Rain = 0
KGU1 142304Z 11003KT 12/02 A3013 RMK A01 T01150019  RH  052%=      5-min Rain = 0
KGU1 142305Z 15003KT 12/02 A3013 RMK A01 T01150018  RH  052%=      5-min Rain = 0
KGU1 142306Z 14003KT 11/02 A3013 RMK A01 T01140019  RH  053%=      5-min Rain = 0
KGU1 142307Z 15003KT 11/02 A3013 RMK A01 T01140019  RH  053%=      5-min Rain = 0
KGU1 142308Z 12003KT 11/02 A3013 RMK A01 T01140020  RH  053%=      5-min Rain = 0
KGU1 142309Z 13004KT 11/02 A3013 RMK A01 T01140018  RH  052%=      5-min Rain = 0
KGU1 142310Z 13004KT 11/02 A3013 RMK A01 T01120017  RH  053%=      5-min Rain = 0
KGU1 142311Z 13002KT 11/02 A3013 RMK A01 T01120018  RH  053%=      5-min Rain = 0
KGU1 142312Z 10003KT 11/02 A3013 RMK A01 T01120018  RH  053%=      5-min Rain = 0
KGU1 142313Z 10004KT 11/02 A3013 RMK A01 T01130019  RH  053%=      5-min Rain = 0
KGU1 142314Z 10005KT 11/02 A3012 RMK A01 T01120018  RH  053%=      5-min Rain = 0
KGU1 142315Z 09004KT 11/02 A3012 RMK A01 T01100017  RH  054%=      5-min Rain = 0
KGU1 142316Z 12004KT 11/02 A3012 RMK A01 T01090017  RH  054%=      5-min Rain = 0
KGU1 142317Z 12004KT 11/02 A3012 RMK A01 T01090017  RH  054%=      5-min Rain = 0
KGU1 142318Z 10004KT 11/02 A3012 RMK A01 T01090018  RH  054%=      5-min Rain = 0
KGU1 142319Z 09004KT 11/02 A3012 RMK A01 T01080016  RH  054%=      5-min Rain = 0
KGU1 142320Z 08004KT 11/02 A3012 RMK A01 T01070016  RH  054%=      5-min Rain = 0
KGU1 142321Z 08004KT 11/02 A3012 RMK A01 T01070017  RH  055%=      5-min Rain = 0
KGU1 142322Z 09003KT 11/02 A3012 RMK A01 T01080019  RH  055%=      5-min Rain = 0
KGU1 142323Z 10004KT 11/02 A3012 RMK A01 T01100019  RH  054%=      5-min Rain = 0
KGU1 142324Z 07004KT 11/02 A3012 RMK A01 T01110020  RH  054%=      5-min Rain = 0
KGU1 142325Z 09004KT 11/02 A3012 RMK A01 T01100017  RH  054%=      5-min Rain = 0
KGU1 142326Z 10004KT 11/02 A3012 RMK A01 T01080018  RH  054%=      5-min Rain = 0
KGU1 142327Z 10005KT 11/02 A3012 RMK A01 T01070017  RH  054%=      5-min Rain = 0
KGU1 142328Z 10004KT 11/02 A3012 RMK A01 T01070018  RH  055%=      5-min Rain = 0
KGU1 142329Z 08004KT 11/02 A3012 RMK A01 T01060017  RH  055%=      5-min Rain = 0
KGU1 142330Z 08005KT 11/02 A3012 RMK A01 T01060017  RH  055%=      5-min Rain = 0
KGU1 142331Z 10006KT 11/02 A3012 RMK A01 T01050017  RH  055%=      5-min Rain = 0
KGU1 142332Z 12005KT 10/02 A3012 RMK A01 T01040017  RH  056%=      5-min Rain = 0
KGU1 142333Z 12006KT 11/02 A3012 RMK A01 T01050018  RH  056%=      5-min Rain = 0
KGU1 142334Z 12005KT 10/02 A3012 RMK A01 T01040017  RH  056%=      5-min Rain = 0
KGU1 142335Z 12005KT 10/02 A3012 RMK A01 T01040017  RH  056%=      5-min Rain = 0
KGU1 142336Z 13004KT 10/02 A3012 RMK A01 T01040018  RH  056%=      5-min Rain = 0
KGU1 142337Z 12003KT 10/02 A3012 RMK A01 T01040018  RH  056%=      5-min Rain = 0
KGU1 142338Z 13004KT 11/02 A3012 RMK A01 T01050018  RH  056%=      5-min Rain = 0
KGU1 142339Z 13003KT 11/02 A3012 RMK A01 T01050018  RH  056%=      5-min Rain = 0
KGU1 142340Z 14002KT 10/02 A3012 RMK A01 T01040017  RH  056%=      5-min Rain = 0
KGU1 142341Z 12003KT 10/02 A3013 RMK A01 T01040018  RH  056%=      5-min Rain = 0
KGU1 142342Z 10003KT 10/02 A3013 RMK A01 T01040017  RH  056%=      5-min Rain = 0
KGU1 142343Z 11003KT 10/02 A3013 RMK A01 T01040017  RH  056%=      5-min Rain = 0
KGU1 142344Z 10003KT 10/02 A3013 RMK A01 T01030017  RH  056%=      5-min Rain = 0
KGU1 142345Z 10001KT 10/02 A3013 RMK A01 T01030016  RH  056%=      5-min Rain = 0
KGU1 142346Z 10001KT 10/02 A3013 RMK A01 T01030016  RH  056%=      5-min Rain = 0
KGU1 142347Z 09002KT 10/02 A3013 RMK A01 T01040017  RH  056%=      5-min Rain = 0
KGU1 142348Z 09002KT 10/02 A3013 RMK A01 T01030017  RH  056%=      5-min Rain = 0
KGU1 142349Z 09003KT 10/02 A3013 RMK A01 T01030017  RH  056%=      5-min Rain = 0
KGU1 142350Z 11004KT 10/02 A3013 RMK A01 T01020016  RH  056%=      5-min Rain = 0
KGU1 142351Z 09004KT 10/02 A3013 RMK A01 T01000017  RH  057%=      5-min Rain = 0
KGU1 142352Z 09005KT 10/02 A3013 RMK A01 T01000018  RH  057%=      5-min Rain = 0
KGU1 142353Z 07005KT 10/02 A3013 RMK A01 T01010018  RH  057%=      5-min Rain = 0
KGU1 142354Z 07003KT 10/02 A3013 RMK A01 T01000018  RH  057%=      5-min Rain = 0
KGU1 142355Z 08004KT 10/02 A3013 RMK A01 T01000018  RH  057%=      5-min Rain = 0
KGU1 142356Z 09004KT 10/02 A3013 RMK A01 T00990017  RH  057%=      5-min Rain = 0
KGU1 142357Z 10003KT 10/02 A3013 RMK A01 T00980017  RH  058%=      5-min Rain = 0
KGU1 142358Z 10003KT 10/02 A3013 RMK A01 T00980017  RH  058%=      5-min Rain = 0
KGU1 142359Z 11003KT 10/02 A3013 RMK A01 T00980017  RH  058%=      5-min Rain = 0
KGU1 150000Z 11003KT 10/02 A3013 RMK A01 T00970017  RH  058%=      5-min Rain = 0
KGU1 150001Z 10002KT 10/02 A3013 RMK A01 T00970016  RH  058%=      5-min Rain = 0
KGU1 150002Z 08002KT 10/02 A3013 RMK A01 T00980017  RH  058%=      5-min Rain = 0
KGU1 150003Z 08002KT 10/02 A3013 RMK A01 T00970017  RH  058%=      5-min Rain = 0
KGU1 150004Z 07002KT 10/02 A3013 RMK A01 T00970016  RH  058%=      5-min Rain = 0
KGU1 150005Z 08002KT 10/02 A3013 RMK A01 T00960016  RH  058%=      5-min Rain = 0
KGU1 150006Z 07003KT 10/02 A3013 RMK A01 T00950016  RH  059%=      5-min Rain = 0
KGU1 150007Z 08002KT 09/02 A3013 RMK A01 T00940015  RH  059%=      5-min Rain = 0
KGU1 150008Z 08002KT 09/02 A3013 RMK A01 T00940016  RH  059%=      5-min Rain = 0
KGU1 150009Z 09002KT 09/02 A3013 RMK A01 T00930016  RH  059%=      5-min Rain = 0
KGU1 150010Z 09003KT 09/02 A3013 RMK A01 T00930016  RH  060%=      5-min Rain = 0
KGU1 150011Z 09003KT 09/02 A3013 RMK A01 T00920017  RH  060%=      5-min Rain = 0
KGU1 150012Z 08003KT 09/02 A3013 RMK A01 T00920017  RH  060%=      5-min Rain = 0
KGU1 150013Z 07002KT 09/02 A3013 RMK A01 T00910017  RH  060%=      5-min Rain = 0
KGU1 150014Z 06002KT 09/02 A3013 RMK A01 T00910016  RH  060%=      5-min Rain = 0
KGU1 150015Z 06002KT 09/02 A3013 RMK A01 T00910016  RH  060%=      5-min Rain = 0
KGU1 150016Z 07001KT 09/02 A3013 RMK A01 T00900016  RH  061%=      5-min Rain = 0
KGU1 150017Z 07000KT 09/02 A3013 RMK A01 T00900016  RH  060%=      5-min Rain = 0
KGU1 150018Z 07000KT 09/02 A3013 RMK A01 T00900015  RH  060%=      5-min Rain = 0
KGU1 150019Z 07000KT 09/02 A3013 RMK A01 T00900016  RH  061%=      5-min Rain = 0
KGU1 150020Z 09001KT 09/02 A3013 RMK A01 T00890015  RH  061%=      5-min Rain = 0
KGU1 150021Z 07001KT 09/02 A3013 RMK A01 T00900016  RH  061%=      5-min Rain = 0
KGU1 150022Z 09002KT 09/02 A3013 RMK A01 T00890016  RH  061%=      5-min Rain = 0
KGU1 150023Z 08002KT 09/02 A3013 RMK A01 T00890016  RH  061%=      5-min Rain = 0
KGU1 150024Z 07003KT 09/02 A3013 RMK A01 T00880016  RH  062%=      5-min Rain = 0
KGU1 150025Z 08004KT 09/02 A3013 RMK A01 T00870016  RH  062%=      5-min Rain = 0
KGU1 150026Z 08004KT 09/02 A3013 RMK A01 T00850016  RH  062%=      5-min Rain = 0
KGU1 150027Z 08003KT 08/02 A3013 RMK A01 T00840016  RH  063%=      5-min Rain = 0
KGU1 150028Z 09003KT 08/02 A3013 RMK A01 T00840016  RH  063%=      5-min Rain = 0
KGU1 150029Z 08002KT 08/02 A3013 RMK A01 T00830016  RH  063%=      5-min Rain = 0
KGU1 150030Z 08002KT 08/02 A3013 RMK A01 T00830016  RH  064%=      5-min Rain = 0
KGU1 150031Z 08002KT 08/02 A3013 RMK A01 T00820016  RH  064%=      5-min Rain = 0
KGU1 150032Z 07002KT 08/02 A3013 RMK A01 T00820016  RH  064%=      5-min Rain = 0
KGU1 150033Z 07002KT 08/02 A3013 RMK A01 T00810015  RH  064%=      5-min Rain = 0
KGU1 150034Z 07002KT 08/02 A3013 RMK A01 T00810015  RH  064%=      5-min Rain = 0
KGU1 150035Z 08002KT 08/02 A3013 RMK A01 T00810015  RH  064%=      5-min Rain = 0
KGU1 150036Z 07002KT 08/02 A3013 RMK A01 T00800015  RH  064%=      5-min Rain = 0
KGU1 150037Z 06001KT 08/02 A3013 RMK A01 T00800015  RH  064%=      5-min Rain = 0
KGU1 150038Z 03002KT 08/01 A3013 RMK A01 T00790014  RH  065%=      5-min Rain = 0
KGU1 150039Z 03002KT 08/02 A3013 RMK A01 T00790015  RH  065%=      5-min Rain = 0
KGU1 150040Z 03002KT 08/02 A3013 RMK A01 T00780015  RH  065%=      5-min Rain = 0
KGU1 150041Z 02002KT 08/02 A3013 RMK A01 T00780015  RH  065%=      5-min Rain = 0
KGU1 150042Z 02002KT 08/02 A3013 RMK A01 T00780015  RH  065%=      5-min Rain = 0
KGU1 150043Z 01002KT 08/01 A3013 RMK A01 T00770014  RH  065%=      5-min Rain = 0
KGU1 150044Z 03001KT 08/01 A3013 RMK A01 T00760014  RH  066%=      5-min Rain = 0
KGU1 150045Z 03000KT 08/01 A3013 RMK A01 T00760014  RH  066%=      5-min Rain = 0
KGU1 150046Z 03001KT 08/01 A3013 RMK A01 T00750014  RH  066%=      5-min Rain = 0
KGU1 150047Z 03001KT 07/01 A3013 RMK A01 T00740014  RH  066%=      5-min Rain = 0
KGU1 150048Z 05001KT 07/01 A3013 RMK A01 T00740014  RH  066%=      5-min Rain = 0
KGU1 150049Z 04001KT 07/01 A3013 RMK A01 T00740013  RH  066%=      5-min Rain = 0
KGU1 150050Z 03001KT 07/01 A3013 RMK A01 T00730013  RH  067%=      5-min Rain = 0
KGU1 150051Z 04001KT 07/01 A3013 RMK A01 T00730013  RH  067%=      5-min Rain = 0
KGU1 150052Z 04002KT 07/01 A3013 RMK A01 T00720013  RH  067%=      5-min Rain = 0
KGU1 150053Z 04002KT 07/01 A3013 RMK A01 T00720013  RH  067%=      5-min Rain = 0
KGU1 150054Z 03001KT 07/01 A3014 RMK A01 T00720014  RH  067%=      5-min Rain = 0
KGU1 150055Z 03001KT 07/01 A3014 RMK A01 T00720014  RH  067%=      5-min Rain = 0
KGU1 150056Z 02002KT 07/01 A3014 RMK A01 T00720014  RH  067%=      5-min Rain = 0
KGU1 150057Z 01001KT 07/01 A3014 RMK A01 T00720013  RH  067%=      5-min Rain = 0
KGU1 150058Z 01001KT 07/01 A3014 RMK A01 T00720013  RH  067%=      5-min Rain = 0
KGU1 150059Z 01001KT 07/01 A3014 RMK A01 T00720014  RH  068%=      5-min Rain = 0
KGU1 150100Z 02001KT 07/01 A3014 RMK A01 T00710013  RH  068%=      5-min Rain = 0
KGU1 150101Z 02001KT 07/01 A3014 RMK A01 T00710013  RH  068%=      5-min Rain = 0
KGU1 150102Z 02001KT 07/01 A3014 RMK A01 T00700013  RH  068%=      5-min Rain = 0
KGU1 150103Z 02001KT 07/01 A3014 RMK A01 T00700013  RH  068%=      5-min Rain = 0
KGU1 150104Z 03001KT 07/01 A3014 RMK A01 T00700013  RH  068%=      5-min Rain = 0
KGU1 150105Z 07000KT 07/01 A3014 RMK A01 T00690012  RH  068%=      5-min Rain = 0
KGU1 150106Z 07001KT 07/01 A3014 RMK A01 T00680012  RH  068%=      5-min Rain = 0
KGU1 150107Z 00000KT 07/01 A3014 RMK A01 T00680012  RH  068%=      5-min Rain = 0
KGU1 150108Z 00000KT 07/01 A3014 RMK A01 T00680013  RH  069%=      5-min Rain = 0
KGU1 150109Z 34000KT 07/01 A3014 RMK A01 T00680013  RH  069%=      5-min Rain = 0
KGU1 150110Z 03000KT 07/01 A3014 RMK A01 T00680013  RH  069%=      5-min Rain = 0
KGU1 150111Z 01001KT 07/01 A3014 RMK A01 T00680013  RH  069%=      5-min Rain = 0
KGU1 150112Z 03000KT 07/01 A3014 RMK A01 T00680013  RH  069%=      5-min Rain = 0
KGU1 150113Z 05001KT 07/01 A3014 RMK A01 T00670013  RH  069%=      5-min Rain = 0
KGU1 150114Z 06001KT 07/01 A3014 RMK A01 T00670012  RH  069%=      5-min Rain = 0
KGU1 150115Z 07002KT 07/01 A3014 RMK A01 T00660012  RH  069%=      5-min Rain = 0
KGU1 150116Z 07001KT 07/01 A3014 RMK A01 T00660011  RH  069%=      5-min Rain = 0
KGU1 150117Z 04001KT 07/01 A3014 RMK A01 T00650011  RH  069%=      5-min Rain = 0
KGU1 150118Z 04002KT 06/01 A3014 RMK A01 T00640011  RH  070%=      5-min Rain = 0
KGU1 150119Z 02001KT 06/01 A3014 RMK A01 T00640011  RH  070%=      5-min Rain = 0
KGU1 150120Z 02002KT 06/01 A3014 RMK A01 T00630011  RH  070%=      5-min Rain = 0
KGU1 150121Z 02002KT 06/01 A3014 RMK A01 T00630011  RH  070%=      5-min Rain = 0
KGU1 150122Z 02002KT 06/01 A3014 RMK A01 T00630011  RH  070%=      5-min Rain = 0
KGU1 150123Z 03002KT 06/01 A3014 RMK A01 T00620010  RH  070%=      5-min Rain = 0
KGU1 150124Z 04001KT 06/01 A3015 RMK A01 T00610009  RH  071%=      5-min Rain = 0
KGU1 150125Z 04001KT 06/01 A3015 RMK A01 T00600009  RH  071%=      5-min Rain = 0
KGU1 150126Z 05001KT 06/01 A3015 RMK A01 T00600009  RH  071%=      5-min Rain = 0
KGU1 150127Z 03001KT 06/01 A3015 RMK A01 T00600010  RH  071%=      5-min Rain = 0
KGU1 150128Z 02001KT 06/01 A3015 RMK A01 T00600010  RH  072%=      5-min Rain = 0
KGU1 150129Z 01001KT 06/01 A3015 RMK A01 T00600011  RH  072%=      5-min Rain = 0
KGU1 150130Z 35000KT 06/01 A3015 RMK A01 T00590010  RH  072%=      5-min Rain = 0
KGU1 150131Z 05000KT 06/01 A3015 RMK A01 T00580009  RH  072%=      5-min Rain = 0
KGU1 150132Z 05000KT 06/01 A3015 RMK A01 T00580009  RH  072%=      5-min Rain = 0
KGU1 150133Z 04001KT 06/01 A3015 RMK A01 T00570009  RH  072%=      5-min Rain = 0
KGU1 150134Z 02001KT 06/01 A3015 RMK A01 T00570010  RH  073%=      5-min Rain = 0
KGU1 150135Z 01001KT 06/01 A3015 RMK A01 T00580010  RH  073%=      5-min Rain = 0
KGU1 150136Z 02001KT 06/01 A3015 RMK A01 T00580011  RH  073%=      5-min Rain = 0
KGU1 150137Z 04001KT 06/01 A3015 RMK A01 T00570010  RH  073%=      5-min Rain = 0
KGU1 150138Z 04001KT 06/01 A3016 RMK A01 T00570009  RH  073%=      5-min Rain = 0
KGU1 150139Z 03001KT 06/01 A3016 RMK A01 T00560009  RH  073%=      5-min Rain = 0
KGU1 150140Z 03001KT 06/01 A3016 RMK A01 T00560009  RH  073%=      5-min Rain = 0
KGU1 150141Z 03001KT 06/01 A3016 RMK A01 T00560009  RH  073%=      5-min Rain = 0
KGU1 150142Z 02001KT 06/01 A3016 RMK A01 T00550009  RH  073%=      5-min Rain = 0
KGU1 150143Z 02002KT 06/01 A3016 RMK A01 T00550009  RH  073%=      5-min Rain = 0
KGU1 150144Z 01002KT 05/01 A3016 RMK A01 T00540009  RH  073%=      5-min Rain = 0
KGU1 150145Z 01002KT 05/01 A3016 RMK A01 T00540009  RH  074%=      5-min Rain = 0
KGU1 150146Z 01002KT 05/01 A3016 RMK A01 T00530009  RH  074%=      5-min Rain = 0
KGU1 150147Z 02002KT 05/01 A3016 RMK A01 T00530009  RH  074%=      5-min Rain = 0
KGU1 150148Z 04001KT 05/01 A3016 RMK A01 T00520009  RH  074%=      5-min Rain = 0
KGU1 150149Z 05002KT 05/01 A3016 RMK A01 T00520009  RH  075%=      5-min Rain = 0
KGU1 150150Z 06002KT 05/01 A3016 RMK A01 T00520009  RH  075%=      5-min Rain = 0
KGU1 150151Z 05001KT 05/01 A3016 RMK A01 T00510008  RH  075%=      5-min Rain = 0
KGU1 150152Z 04001KT 05/01 A3016 RMK A01 T00510009  RH  075%=      5-min Rain = 0
KGU1 150153Z 05001KT 05/01 A3016 RMK A01 T00520009  RH  075%=      5-min Rain = 0
KGU1 150154Z 03001KT 05/01 A3016 RMK A01 T00520009  RH  075%=      5-min Rain = 0
KGU1 150155Z 03001KT 05/01 A3016 RMK A01 T00520009  RH  075%=      5-min Rain = 0
KGU1 150156Z 02001KT 05/01 A3016 RMK A01 T00510008  RH  075%=      5-min Rain = 0
KGU1 150157Z 02001KT 05/01 A3016 RMK A01 T00510008  RH  075%=      5-min Rain = 0
KGU1 150158Z 02001KT 05/01 A3016 RMK A01 T00500008  RH  075%=      5-min Rain = 0
KGU1 150159Z 01001KT 05/01 A3016 RMK A01 T00500008  RH  075%=      5-min Rain = 0
KGU1 150200Z 01001KT 05/01 A3016 RMK A01 T00510009  RH  075%=      5-min Rain = 0
KGU1 150201Z 35002KT 05/01 A3016 RMK A01 T00510009  RH  075%=      5-min Rain = 0
KGU1 150202Z 01001KT 05/01 A3016 RMK A01 T00510008  RH  075%=      5-min Rain = 0
KGU1 150203Z 01001KT 05/01 A3016 RMK A01 T00500008  RH  075%=      5-min Rain = 0
KGU1 150204Z 35001KT 05/01 A3016 RMK A01 T00490008  RH  076%=      5-min Rain = 0
KGU1 150205Z 35001KT 05/01 A3016 RMK A01 T00490008  RH  076%=      5-min Rain = 0
KGU1 150206Z 00001KT 05/01 A3016 RMK A01 T00480008  RH  076%=      5-min Rain = 0
KGU1 150207Z 35001KT 05/01 A3016 RMK A01 T00470007  RH  076%=      5-min Rain = 0
KGU1 150208Z 00001KT 05/01 A3016 RMK A01 T00470007  RH  076%=      5-min Rain = 0
KGU1 150209Z 00001KT 05/01 A3016 RMK A01 T00460007  RH  077%=      5-min Rain = 0
KGU1 150210Z 00001KT 05/01 A3016 RMK A01 T00460007  RH  077%=      5-min Rain = 0
KGU1 150211Z 36002KT 05/01 A3016 RMK A01 T00450007  RH  077%=      5-min Rain = 0
KGU1 150212Z 36002KT 05/01 A3016 RMK A01 T00450007  RH  078%=      5-min Rain = 0
KGU1 150213Z 01002KT 04/01 A3016 RMK A01 T00440006  RH  078%=      5-min Rain = 0
KGU1 150214Z 01001KT 04/01 A3016 RMK A01 T00440007  RH  078%=      5-min Rain = 0
KGU1 150215Z 02001KT 04/01 A3016 RMK A01 T00440007  RH  078%=      5-min Rain = 0
KGU1 150216Z 04002KT 04/01 A3016 RMK A01 T00440007  RH  078%=      5-min Rain = 0
KGU1 150217Z 03002KT 04/01 A3016 RMK A01 T00430006  RH  078%=      5-min Rain = 0
KGU1 150218Z 02002KT 04/01 A3016 RMK A01 T00430006  RH  078%=      5-min Rain = 0
KGU1 150219Z 02003KT 04/01 A3016 RMK A01 T00420006  RH  078%=      5-min Rain = 0
KGU1 150220Z 02002KT 04/01 A3016 RMK A01 T00420006  RH  078%=      5-min Rain = 0
KGU1 150221Z 03002KT 04/01 A3016 RMK A01 T00420007  RH  079%=      5-min Rain = 0
KGU1 150222Z 03002KT 04/01 A3016 RMK A01 T00420007  RH  079%=      5-min Rain = 0
KGU1 150223Z 03002KT 04/01 A3016 RMK A01 T00420007  RH  079%=      5-min Rain = 0
KGU1 150224Z 03002KT 04/01 A3016 RMK A01 T00430008  RH  079%=      5-min Rain = 0
KGU1 150225Z 01002KT 04/01 A3016 RMK A01 T00430008  RH  079%=      5-min Rain = 0
KGU1 150226Z 00002KT 04/01 A3016 RMK A01 T00430007  RH  078%=      5-min Rain = 0
KGU1 150227Z 01002KT 04/01 A3016 RMK A01 T00430007  RH  078%=      5-min Rain = 0
KGU1 150228Z 01002KT 04/01 A3016 RMK A01 T00420007  RH  079%=      5-min Rain = 0
KGU1 150229Z 00002KT 04/01 A3016 RMK A01 T00420007  RH  079%=      5-min Rain = 0
KGU1 150230Z 00003KT 04/01 A3016 RMK A01 T00420006  RH  079%=      5-min Rain = 0
KGU1 150231Z 01003KT 04/01 A3016 RMK A01 T00410006  RH  079%=      5-min Rain = 0
KGU1 150232Z 00002KT 04/01 A3016 RMK A01 T00410006  RH  079%=      5-min Rain = 0
KGU1 150233Z 01002KT 04/01 A3016 RMK A01 T00410007  RH  079%=      5-min Rain = 0
KGU1 150234Z 00002KT 04/01 A3016 RMK A01 T00410006  RH  079%=      5-min Rain = 0
KGU1 150235Z 35002KT 04/01 A3016 RMK A01 T00400006  RH  079%=      5-min Rain = 0
KGU1 150236Z 35002KT 04/01 A3016 RMK A01 T00400006  RH  079%=      5-min Rain = 0
KGU1 150237Z 01002KT 04/01 A3016 RMK A01 T00400006  RH  080%=      5-min Rain = 0
KGU1 150238Z 00002KT 04/01 A3016 RMK A01 T00390006  RH  080%=      5-min Rain = 0
KGU1 150239Z 01001KT 04/01 A3016 RMK A01 T00400007  RH  080%=      5-min Rain = 0
KGU1 150240Z 01001KT 04/01 A3016 RMK A01 T00400007  RH  080%=      5-min Rain = 0
KGU1 150241Z 01001KT 04/01 A3016 RMK A01 T00410007  RH  080%=      5-min Rain = 0
KGU1 150242Z 36001KT 04/01 A3016 RMK A01 T00410007  RH  080%=      5-min Rain = 0
KGU1 150243Z 35002KT 04/01 A3016 RMK A01 T00410007  RH  080%=      5-min Rain = 0
KGU1 150244Z 00002KT 04/01 A3016 RMK A01 T00410007  RH  080%=      5-min Rain = 0
KGU1 150245Z 36002KT 04/01 A3016 RMK A01 T00410007  RH  080%=      5-min Rain = 0
KGU1 150246Z 36002KT 04/01 A3016 RMK A01 T00410007  RH  079%=      5-min Rain = 0
KGU1 150247Z 00002KT 04/01 A3016 RMK A01 T00400006  RH  079%=      5-min Rain = 0
KGU1 150248Z 00002KT 04/01 A3016 RMK A01 T00400006  RH  080%=      5-min Rain = 0
KGU1 150249Z 00002KT 04/01 A3016 RMK A01 T00400006  RH  080%=      5-min Rain = 0
KGU1 150250Z 35002KT 04/01 A3016 RMK A01 T00400007  RH  080%=      5-min Rain = 0
KGU1 150251Z 35002KT 04/01 A3016 RMK A01 T00400007  RH  080%=      5-min Rain = 0
KGU1 150252Z 36002KT 04/01 A3016 RMK A01 T00390006  RH  080%=      5-min Rain = 0
KGU1 150253Z 35002KT 04/01 A3016 RMK A01 T00390005  RH  080%=      5-min Rain = 0
KGU1 150254Z 35002KT 04/01 A3016 RMK A01 T00380005  RH  080%=      5-min Rain = 0
KGU1 150255Z 33002KT 04/01 A3016 RMK A01 T00380005  RH  080%=      5-min Rain = 0
KGU1 150256Z 33002KT 04/01 A3016 RMK A01 T00370005  RH  080%=      5-min Rain = 0
KGU1 150257Z 34002KT 04/01 A3016 RMK A01 T00370005  RH  080%=      5-min Rain = 0
KGU1 150258Z 34002KT 04/01 A3016 RMK A01 T00370005  RH  081%=      5-min Rain = 0
KGU1 150259Z 34002KT 04/01 A3016 RMK A01 T00360005  RH  081%=      5-min Rain = 0
KGU1 150300Z 34003KT 04/00 A3016 RMK A01 T00360004  RH  081%=      5-min Rain = 0
KGU1 150301Z 34003KT 04/00 A3016 RMK A01 T00350004  RH  081%=      5-min Rain = 0
KGU1 150302Z 33003KT 03/00 A3016 RMK A01 T00340003  RH  081%=      5-min Rain = 0
KGU1 150303Z 33004KT 03/00 A3016 RMK A01 T00340004  RH  082%=      5-min Rain = 0
KGU1 150304Z 35004KT 03/00 A3016 RMK A01 T00330004  RH  082%=      5-min Rain = 0
KGU1 150305Z 35003KT 03/00 A3016 RMK A01 T00330004  RH  082%=      5-min Rain = 0
KGU1 150306Z 35003KT 03/00 A3016 RMK A01 T00330004  RH  082%=      5-min Rain = 0
KGU1 150307Z 35003KT 03/00 A3016 RMK A01 T00320004  RH  082%=      5-min Rain = 0
KGU1 150308Z 33003KT 03/00 A3016 RMK A01 T00320003  RH  083%=      5-min Rain = 0
KGU1 150309Z 34003KT 03/00 A3016 RMK A01 T00320004  RH  083%=      5-min Rain = 0
KGU1 150310Z 34003KT 03/00 A3016 RMK A01 T00330004  RH  083%=      5-min Rain = 0
KGU1 150311Z 34003KT 03/01 A3016 RMK A01 T00330005  RH  083%=      5-min Rain = 0
KGU1 150312Z 34003KT 03/01 A3016 RMK A01 T00340005  RH  083%=      5-min Rain = 0
KGU1 150313Z 34003KT 03/00 A3016 RMK A01 T00340004  RH  082%=      5-min Rain = 0
KGU1 150314Z 34004KT 03/00 A3016 RMK A01 T00330004  RH  082%=      5-min Rain = 0
KGU1 150315Z 33003KT 03/00 A3016 RMK A01 T00320003  RH  082%=      5-min Rain = 0
KGU1 150316Z 34003KT 03/00 A3016 RMK A01 T00310003  RH  082%=      5-min Rain = 0
KGU1 150317Z 34003KT 03/00 A3016 RMK A01 T00310002  RH  083%=      5-min Rain = 0
KGU1 150318Z 34003KT 03/00 A3016 RMK A01 T00310003  RH  083%=      5-min Rain = 0
KGU1 150319Z 34003KT 03/00 A3016 RMK A01 T00310003  RH  083%=      5-min Rain = 0
KGU1 150320Z 35003KT 03/00 A3016 RMK A01 T00300002  RH  083%=      5-min Rain = 0
KGU1 150321Z 34003KT 03/00 A3016 RMK A01 T00300002  RH  083%=      5-min Rain = 0
KGU1 150322Z 34003KT 03/00 A3016 RMK A01 T00290003  RH  084%=      5-min Rain = 0
KGU1 150323Z 34003KT 03/00 A3016 RMK A01 T00290003  RH  084%=      5-min Rain = 0
KGU1 150324Z 34003KT 03/00 A3017 RMK A01 T00290003  RH  084%=      5-min Rain = 0
KGU1 150325Z 34003KT 03/00 A3017 RMK A01 T00290002  RH  084%=      5-min Rain = 0
KGU1 150326Z 33003KT 03/00 A3017 RMK A01 T00280002  RH  084%=      5-min Rain = 0
KGU1 150327Z 34002KT 03/00 A3017 RMK A01 T00280003  RH  084%=      5-min Rain = 0
KGU1 150328Z 33003KT 03/00 A3017 RMK A01 T00290003  RH  084%=      5-min Rain = 0
KGU1 150329Z 33003KT 03/00 A3017 RMK A01 T00290002  RH  084%=      5-min Rain = 0
KGU1 150330Z 33003KT 03/00 A3017 RMK A01 T00280002  RH  084%=      5-min Rain = 0
KGU1 150331Z 34003KT 03/00 A3017 RMK A01 T00290003  RH  084%=      5-min Rain = 0
KGU1 150332Z 34003KT 03/00 A3017 RMK A01 T00290003  RH  084%=      5-min Rain = 0
KGU1 150333Z 35002KT 03/00 A3016 RMK A01 T00300004  RH  084%=      5-min Rain = 0
KGU1 150334Z 33002KT 03/00 A3016 RMK A01 T00300004  RH  084%=      5-min Rain = 0
KGU1 150335Z 34002KT 03/00 A3016 RMK A01 T00280001  RH  083%=      5-min Rain = 0
KGU1 150336Z 33002KT 03/00 A3016 RMK A01 T00280001  RH  084%=      5-min Rain = 0
KGU1 150337Z 33002KT 03/00 A3016 RMK A01 T00290003  RH  084%=      5-min Rain = 0
KGU1 150338Z 33003KT 03/00 A3016 RMK A01 T00290003  RH  084%=      5-min Rain = 0
KGU1 150339Z 34002KT 03/00 A3016 RMK A01 T00290003  RH  084%=      5-min Rain = 0
KGU1 150340Z 35002KT 03/00 A3016 RMK A01 T00290002  RH  084%=      5-min Rain = 0
KGU1 150341Z 34001KT 03/00 A3016 RMK A01 T00290003  RH  084%=      5-min Rain = 0
KGU1 150342Z 33001KT 03/00 A3016 RMK A01 T00290003  RH  084%=      5-min Rain = 0
KGU1 150343Z 34001KT 03/00 A3016 RMK A01 T00290002  RH  084%=      5-min Rain = 0
KGU1 150344Z 34002KT 03/00 A3016 RMK A01 T00300004  RH  084%=      5-min Rain = 0
KGU1 150345Z 33002KT 03/00 A3016 RMK A01 T00300004  RH  084%=      5-min Rain = 0
KGU1 150346Z 33002KT 03/00 A3016 RMK A01 T00300003  RH  083%=      5-min Rain = 0
KGU1 150347Z 32002KT 03/00 A3016 RMK A01 T00300002  RH  083%=      5-min Rain = 0
KGU1 150348Z 33002KT 03/00 A3016 RMK A01 T00300002  RH  083%=      5-min Rain = 0
KGU1 150349Z 32003KT 03/00 A3016 RMK A01 T00310003  RH  083%=      5-min Rain = 0
KGU1 150350Z 31003KT 03/00 A3016 RMK A01 T00310002  RH  082%=      5-min Rain = 0
KGU1 150351Z 32003KT 03/00 A3016 RMK A01 T00300001  RH  082%=      5-min Rain = 0
KGU1 150352Z 32002KT 03/00 A3016 RMK A01 T00290001  RH  083%=      5-min Rain = 0
KGU1 150353Z 32003KT 03/00 A3016 RMK A01 T00290001  RH  083%=      5-min Rain = 0
KGU1 150354Z 31003KT 03/00 A3016 RMK A01 T00290002  RH  083%=      5-min Rain = 0
KGU1 150355Z 31004KT 03/00 A3016 RMK A01 T00280002  RH  084%=      5-min Rain = 0
KGU1 150356Z 31004KT 03/00 A3016 RMK A01 T00270000  RH  084%=      5-min Rain = 0
KGU1 150357Z 31004KT 03/00 A3016 RMK A01 T00270001  RH  084%=      5-min Rain = 0
KGU1 150358Z 31004KT 03/00 A3016 RMK A01 T00260001  RH  085%=      5-min Rain = 0
KGU1 150359Z 31003KT 03/00 A3016 RMK A01 T00270002  RH  085%=      5-min Rain = 0
KGU1 150400Z 31003KT 03/00 A3016 RMK A01 T00270002  RH  085%=      5-min Rain = 0
KGU1 150401Z 30004KT 03/00 A3016 RMK A01 T00270001  RH  084%=      5-min Rain = 0
KGU1 150402Z 30004KT 03/00 A3016 RMK A01 T002600-0  RH  084%=      5-min Rain = 0
KGU1 150403Z 30004KT 02/M00 A3016 RMK A01 T00241003  RH  084%=      5-min Rain = 0
KGU1 150404Z 30004KT 02/M00 A3016 RMK A01 T00231002  RH  084%=      5-min Rain = 0
KGU1 150405Z 30005KT 02/M00 A3016 RMK A01 T00221002  RH  085%=      5-min Rain = 0
KGU1 150406Z 30005KT 02/M00 A3016 RMK A01 T00221002  RH  085%=      5-min Rain = 0
KGU1 150407Z 30005KT 02/M00 A3016 RMK A01 T00211002  RH  086%=      5-min Rain = 0
KGU1 150408Z 30004KT 02/M00 A3016 RMK A01 T00211002  RH  086%=      5-min Rain = 0
KGU1 150409Z 30005KT 02/M00 A3016 RMK A01 T00211002  RH  086%=      5-min Rain = 0
KGU1 150410Z 30005KT 02/M00 A3016 RMK A01 T00211002  RH  086%=      5-min Rain = 0
KGU1 150411Z 30005KT 02/M00 A3016 RMK A01 T00211002  RH  086%=      5-min Rain = 0
KGU1 150412Z 30004KT 02/M00 A3016 RMK A01 T00201003  RH  086%=      5-min Rain = 0
KGU1 150413Z 30004KT 02/M00 A3016 RMK A01 T00201003  RH  086%=      5-min Rain = 0
KGU1 150414Z 30003KT 02/M00 A3016 RMK A01 T00201003  RH  086%=      5-min Rain = 0
KGU1 150415Z 30004KT 02/M00 A3016 RMK A01 T00201003  RH  086%=      5-min Rain = 0
KGU1 150416Z 29005KT 02/M00 A3016 RMK A01 T00211002  RH  086%=      5-min Rain = 0
KGU1 150417Z 29006KT 02/M00 A3016 RMK A01 T00221002  RH  086%=      5-min Rain = 0
KGU1 150418Z 31004KT 02/00 A3016 RMK A01 T002300-0  RH  086%=      5-min Rain = 0
KGU1 150419Z 28005KT 02/00 A3016 RMK A01 T00240001  RH  086%=      5-min Rain = 0
KGU1 150420Z 29004KT 02/M00 A3016 RMK A01 T00241001  RH  084%=      5-min Rain = 0
KGU1 150421Z 32002KT 03/00 A3016 RMK A01 T00270002  RH  085%=      5-min Rain = 0
KGU1 150422Z 29004KT 03/00 A3016 RMK A01 T00290002  RH  084%=      5-min Rain = 0
KGU1 150423Z 30003KT 03/M00 A3016 RMK A01 T00271001  RH  083%=      5-min Rain = 0
KGU1 150424Z 29004KT 03/M00 A3016 RMK A01 T00271001  RH  083%=      5-min Rain = 0
KGU1 150425Z 29005KT 03/M00 A3016 RMK A01 T00261002  RH  083%=      5-min Rain = 0
KGU1 150426Z 29004KT 03/M00 A3016 RMK A01 T00251002  RH  083%=      5-min Rain = 0
KGU1 150427Z 28004KT 03/M00 A3016 RMK A01 T00251001  RH  084%=      5-min Rain = 0
KGU1 150428Z 29004KT 03/00 A3016 RMK A01 T002500-0  RH  084%=      5-min Rain = 0
KGU1 150429Z 29005KT 03/00 A3015 RMK A01 T002600-0  RH  084%=      5-min Rain = 0
KGU1 150430Z 29005KT 03/M00 A3015 RMK A01 T00251001  RH  084%=      5-min Rain = 0
KGU1 150431Z 30003KT 03/00 A3015 RMK A01 T00260000  RH  084%=      5-min Rain = 0
KGU1 150432Z 30003KT 03/00 A3015 RMK A01 T00280002  RH  084%=      5-min Rain = 0
KGU1 150433Z 30002KT 03/00 A3015 RMK A01 T00280001  RH  083%=      5-min Rain = 0
KGU1 150434Z 27002KT 03/00 A3015 RMK A01 T00290001  RH  083%=      5-min Rain = 0
KGU1 150435Z 26000KT 03/00 A3015 RMK A01 T00300002  RH  083%=      5-min Rain = 0
KGU1 150436Z 27003KT 03/00 A3015 RMK A01 T00310002  RH  082%=      5-min Rain = 0
KGU1 150437Z 28002KT 03/00 A3015 RMK A01 T00330002  RH  081%=      5-min Rain = 0
KGU1 150438Z 29004KT 03/00 A3015 RMK A01 T003400-0  RH  079%=      5-min Rain = 0
KGU1 150439Z 28002KT 03/M00 A3015 RMK A01 T00331001  RH  079%=      5-min Rain = 0
KGU1 150440Z 27002KT 03/M00 A3015 RMK A01 T00331001  RH  080%=      5-min Rain = 0
KGU1 150441Z 27002KT 03/00 A3015 RMK A01 T00330001  RH  080%=      5-min Rain = 0
KGU1 150442Z 27001KT 04/01 A3015 RMK A01 T00370005  RH  081%=      5-min Rain = 0
KGU1 150443Z 27000KT 04/01 A3015 RMK A01 T00410007  RH  079%=      5-min Rain = 0
KGU1 150444Z 25001KT 05/01 A3015 RMK A01 T00450008  RH  078%=      5-min Rain = 0
KGU1 150445Z 25000KT 05/01 A3015 RMK A01 T00460005  RH  076%=      5-min Rain = 0
KGU1 150446Z 25000KT 05/00 A3015 RMK A01 T00460003  RH  075%=      5-min Rain = 0
KGU1 150447Z 29000KT 05/01 A3015 RMK A01 T00480006  RH  075%=      5-min Rain = 0
KGU1 150448Z 30001KT 05/00 A3015 RMK A01 T00480004  RH  074%=      5-min Rain = 0
KGU1 150449Z 30000KT 05/01 A3015 RMK A01 T00500005  RH  074%=      5-min Rain = 0
KGU1 150450Z 00000KT 05/01 A3015 RMK A01 T00510006  RH  074%=      5-min Rain = 0
KGU1 150451Z 00000KT 05/01 A3015 RMK A01 T00540009  RH  074%=      5-min Rain = 0
KGU1 150452Z 16000KT 06/01 A3015 RMK A01 T00560009  RH  073%=      5-min Rain = 0
KGU1 150453Z 00000KT 06/01 A3015 RMK A01 T00570010  RH  073%=      5-min Rain = 0
KGU1 150454Z 16000KT 06/01 A3015 RMK A01 T00570009  RH  072%=      5-min Rain = 0
KGU1 150455Z 14001KT 06/01 A3015 RMK A01 T00580009  RH  072%=      5-min Rain = 0
KGU1 150456Z 16001KT 06/01 A3015 RMK A01 T00590010  RH  072%=      5-min Rain = 0
KGU1 150457Z 14001KT 06/01 A3015 RMK A01 T00600009  RH  071%=      5-min Rain = 0
KGU1 150458Z 14001KT 06/01 A3015 RMK A01 T00600009  RH  071%=      5-min Rain = 0
KGU1 150459Z 15000KT 06/01 A3015 RMK A01 T00600008  RH  070%=      5-min Rain = 0
KGU1 150500Z 14001KT 06/01 A3015 RMK A01 T00600008  RH  070%=      5-min Rain = 0
KGU1 150501Z 15002KT 06/01 A3015 RMK A01 T00610008  RH  070%=      5-min Rain = 0
KGU1 150502Z 14001KT 06/01 A3015 RMK A01 T00610008  RH  069%=      5-min Rain = 0
KGU1 150503Z 14000KT 06/01 A3015 RMK A01 T00610007  RH  069%=      5-min Rain = 0
KGU1 150504Z 14001KT 06/01 A3014 RMK A01 T00610007  RH  069%=      5-min Rain = 0
KGU1 150505Z 14002KT 06/01 A3014 RMK A01 T00600007  RH  070%=      5-min Rain = 0
KGU1 150506Z 14001KT 06/01 A3014 RMK A01 T00590007  RH  070%=      5-min Rain = 0
KGU1 150507Z 14002KT 06/01 A3014 RMK A01 T00590007  RH  070%=      5-min Rain = 0
KGU1 150508Z 14002KT 06/01 A3014 RMK A01 T00590007  RH  070%=      5-min Rain = 0
KGU1 150509Z 13002KT 06/01 A3014 RMK A01 T00590008  RH  070%=      5-min Rain = 0
KGU1 150510Z 13002KT 06/01 A3014 RMK A01 T00590007  RH  070%=      5-min Rain = 0
KGU1 150511Z 11001KT 06/01 A3014 RMK A01 T00590008  RH  070%=      5-min Rain = 0
KGU1 150512Z 11001KT 06/01 A3014 RMK A01 T00600008  RH  071%=      5-min Rain = 0
KGU1 150513Z 12003KT 06/01 A3014 RMK A01 T00600009  RH  071%=      5-min Rain = 0
KGU1 150514Z 13003KT 06/01 A3014 RMK A01 T00610009  RH  070%=      5-min Rain = 0
KGU1 150515Z 13003KT 06/01 A3014 RMK A01 T00610009  RH  070%=      5-min Rain = 0
KGU1 150516Z 14002KT 06/01 A3014 RMK A01 T00610008  RH  070%=      5-min Rain = 0
KGU1 150517Z 14001KT 06/01 A3014 RMK A01 T00600007  RH  069%=      5-min Rain = 0
KGU1 150518Z 13000KT 06/01 A3014 RMK A01 T00590006  RH  070%=      5-min Rain = 0
KGU1 150519Z 11001KT 06/01 A3014 RMK A01 T00580007  RH  071%=      5-min Rain = 0
KGU1 150520Z 21001G7KT 06/01 A3014 RMK A01 T00570007  RH  071%=      5-min Rain = 0
KGU1 150521Z 24003KT 06/01 A3014 RMK A01 T00560005  RH  070%=      5-min Rain = 0
KGU1 150522Z 22003KT 06/00 A3014 RMK A01 T00590003  RH  068%=      5-min Rain = 0
KGU1 150523Z 22003KT 06/00 A3014 RMK A01 T00600002  RH  067%=      5-min Rain = 0
KGU1 150524Z 22005KT 06/00 A3014 RMK A01 T00620000  RH  065%=      5-min Rain = 0
KGU1 150525Z 24006KT 07/M00 A3014 RMK A01 T00721003  RH  060%=      5-min Rain = 0
KGU1 150526Z 25008KT 08/M01 A3014 RMK A01 T00831005  RH  054%=      5-min Rain = 0
KGU1 150527Z 25009KT 09/M01 A3014 RMK A01 T00911006  RH  051%=      5-min Rain = 0
KGU1 150528Z 24011G17KT 10/M01 A3014 RMK A01 T00991008  RH  048%=      5-min Rain = 0
KGU1 150529Z 24010KT 11/M01 A3014 RMK A01 T01051009  RH  046%=      5-min Rain = 0
KGU1 150530Z 23010KT 11/M01 A3014 RMK A01 T01061009  RH  045%=      5-min Rain = 0
KGU1 150531Z 23009KT 11/M01 A3014 RMK A01 T01081010  RH  045%=      5-min Rain = 0
KGU1 150532Z 24012KT 11/M01 A3014 RMK A01 T01101010  RH  044%=      5-min Rain = 0
KGU1 150533Z 25012KT 11/M01 A3014 RMK A01 T01121011  RH  043%=      5-min Rain = 0
KGU1 150534Z 25012KT 11/M01 A3014 RMK A01 T01141011  RH  042%=      5-min Rain = 0
KGU1 150535Z 24012KT 12/M01 A3013 RMK A01 T01151012  RH  042%=      5-min Rain = 0
KGU1 150536Z 24011KT 12/M01 A3013 RMK A01 T01161012  RH  042%=      5-min Rain = 0
KGU1 150537Z 23009KT 12/M01 A3014 RMK A01 T01161012  RH  041%=      5-min Rain = 0
KGU1 150538Z 23009KT 12/M01 A3013 RMK A01 T01151012  RH  042%=      5-min Rain = 0
KGU1 150539Z 24009KT 11/M01 A3013 RMK A01 T01141013  RH  042%=      5-min Rain = 0
KGU1 150540Z 25009KT 11/M01 A3014 RMK A01 T01141013  RH  042%=      5-min Rain = 0
KGU1 150541Z 26008KT 11/M01 A3014 RMK A01 T01121012  RH  043%=      5-min Rain = 0
KGU1 150542Z 26009KT 11/M01 A3014 RMK A01 T01091011  RH  044%=      5-min Rain = 0
KGU1 150543Z 26009KT 11/M01 A3014 RMK A01 T01061012  RH  044%=      5-min Rain = 0
KGU1 150544Z 25008KT 11/M01 A3014 RMK A01 T01061012  RH  044%=      5-min Rain = 0
KGU1 150545Z 26010KT 11/M01 A3013 RMK A01 T01071012  RH  044%=      5-min Rain = 0
KGU1 150546Z 25010KT 11/M01 A3013 RMK A01 T01071012  RH  044%=      5-min Rain = 0
KGU1 150547Z 25011KT 11/M01 A3013 RMK A01 T01091013  RH  043%=      5-min Rain = 0
KGU1 150548Z 24011KT 11/M01 A3013 RMK A01 T01121014  RH  042%=      5-min Rain = 0
KGU1 150549Z 25009KT 11/M01 A3013 RMK A01 T01121013  RH  042%=      5-min Rain = 0
KGU1 150550Z 25009KT 11/M01 A3013 RMK A01 T01101013  RH  043%=      5-min Rain = 0
KGU1 150551Z 25010KT 11/M01 A3013 RMK A01 T01081013  RH  043%=      5-min Rain = 0
KGU1 150552Z 25011KT 11/M01 A3013 RMK A01 T01061012  RH  044%=      5-min Rain = 0
KGU1 150553Z 26011G16KT 11/M01 A3013 RMK A01 T01081013  RH  043%=      5-min Rain = 0
KGU1 150554Z 24015KT 11/M01 A3013 RMK A01 T01101013  RH  043%=      5-min Rain = 0
KGU1 150555Z 23011KT 11/M01 A3013 RMK A01 T01131014  RH  042%=      5-min Rain = 0
KGU1 150556Z 25011KT 11/M01 A3013 RMK A01 T01131014  RH  042%=      5-min Rain = 0
KGU1 150557Z 27012KT 11/M01 A3013 RMK A01 T01141014  RH  041%=      5-min Rain = 0
KGU1 150558Z 26010KT 11/M01 A3013 RMK A01 T01131013  RH  042%=      5-min Rain = 0
KGU1 150559Z 26007KT 11/M01 A3013 RMK A01 T01111013  RH  043%=      5-min Rain = 0

Page generated in 0.0716 seconds.